M I D A S
Marine Information and Data Acquisition System
Tripno 945 of the Zeeleeuw from 2005-04-13 06:34:00 to 2005-04-13 13:48:16
Back to CruiseResearch ActivitiesStationsMapUnderway DataData graphs

EquipmentUnitsComment
TimeDGPSUTC
LatitudeDGPSDM.mWGS84
LongitudeDGPSDM.mWGS84
TemperatureSBE03/SBE38deg celciusITS90
ConductivitySBE21S/mITS90
SalinitySBE21 Practical Salinity Units
ChlorophylAChelsea fluorimeterg/lCalibrated in Aceton
Missing or incorrect values are displayed as -999
Sea surface data collected by the RV Zeeleeuw from 2005-04-13 06:30:56 to 2005-04-13 13:59:09
                                                                                    Next 1000 lines
Time Latitude Longitude Temperature Conductivity Salinity ChlorophylA
2005-04-13 06:31:07 51°13.596 2°56.1 16.3555 0.078129 0.430158 -0.882377
2005-04-13 06:31:11 51°13.596 2°56.1 16.3302 0.078129 0.430158 -0.882377
2005-04-13 06:31:17 51°13.595 2°56.1 16.3217 0.078129 0.430179 -0.882377
2005-04-13 06:31:22 51°13.595 2°56.1 16.3115 0.078129 0.430186 -0.882377
2005-04-13 06:31:26 51°13.595 2°56.1 16.3206 0.078129 0.430186 -0.848668
2005-04-13 06:31:32 51°13.595 2°56.1 16.3274 0.078129 0.4302 -0.916087
2005-04-13 06:31:37 51°13.595 2°56.099 16.3525 0.078129 0.430207 -0.848668
2005-04-13 06:31:41 51°13.595 2°56.099 16.3437 0.078129 0.430207 -0.848668
2005-04-13 06:31:47 51°13.595 2°56.099 16.3669 0.078129 0.430214 -0.882377
2005-04-13 06:31:52 51°13.594 2°56.099 16.359 0.078129 0.430214 -0.882377
2005-04-13 06:31:57 51°13.594 2°56.099 16.3504 0.078129 0.430214 -0.848668
2005-04-13 06:32:01 51°13.594 2°56.098 16.3649 0.078129 0.430221 -0.848668
2005-04-13 06:32:07 51°13.594 2°56.098 16.3696 0.078129 0.430221 -0.848668
2005-04-13 06:32:12 51°13.594 2°56.098 16.3531 0.078129 0.430221 -0.848668
2005-04-13 06:32:17 51°13.594 2°56.098 16.3599 0.078129 0.430221 -0.882377
2005-04-13 06:32:22 51°13.594 2°56.098 16.3626 0.078129 0.430228 -0.882377
2005-04-13 06:32:27 51°13.594 2°56.098 16.365 0.078129 0.430242 -0.882377
2005-04-13 06:32:32 51°13.593 2°56.099 16.3677 0.078129 0.430256 -0.882377
2005-04-13 06:32:37 51°13.593 2°56.099 16.364 0.078129 0.430256 -0.882377
2005-04-13 06:32:41 51°13.593 2°56.1 16.3645 0.078129 0.430256 -0.882377
2005-04-13 06:32:47 51°13.592 2°56.101 16.3635 0.078129 0.430263 -0.882377
2005-04-13 06:32:52 51°13.591 2°56.102 16.3681 0.078129 0.430277 -0.848668
2005-04-13 06:32:56 51°13.59 2°56.103 16.3683 0.078129 0.430284 -0.882377
2005-04-13 06:33:01 51°13.59 2°56.104 16.3718 0.078129 0.430284 -0.882377
2005-04-13 06:33:07 51°13.588 2°56.107 16.3701 0.078129 0.430284 -0.882377
2005-04-13 06:33:11 51°13.587 2°56.109 16.3682 0.078129 0.430284 -0.882377
2005-04-13 06:33:17 51°13.585 2°56.112 16.3654 0.078129 0.430284 -0.882377
2005-04-13 06:33:22 51°13.583 2°56.115 16.3618 0.078129 0.430284 -0.848668
2005-04-13 06:33:27 51°13.581 2°56.117 16.3584 0.078129 0.430284 -0.882377
2005-04-13 06:33:33 51°13.579 2°56.121 16.3563 0.078129 0.430298 -0.848668
2005-04-13 06:33:37 51°13.577 2°56.124 16.3535 0.078129 0.430304 -0.848668
2005-04-13 06:33:41 51°13.575 2°56.126 16.3498 0.078129 0.430304 -0.848668
2005-04-13 06:33:47 51°13.572 2°56.13 16.3471 0.078129 0.430311 -0.882377
2005-04-13 06:33:52 51°13.57 2°56.133 16.3499 0.078129 0.430318 -0.882377
2005-04-13 06:33:56 51°13.567 2°56.136 16.3612 0.078129 0.430332 -0.882377
2005-04-13 06:34:02 51°13.564 2°56.14 16.3664 0.078129 0.430332 -0.882377
2005-04-13 06:34:07 51°13.562 2°56.144 16.4143 0.078129 0.430332 -0.882377
2005-04-13 06:34:12 51°13.559 2°56.148 16.4776 0.078129 0.430332 -0.882377
2005-04-13 06:34:17 51°13.557 2°56.153 16.5207 0.078129 0.430332 -0.882377
2005-04-13 06:34:21 51°13.555 2°56.157 16.5427 0.078129 0.430339 -0.882377
2005-04-13 06:34:27 51°13.554 2°56.163 16.5566 0.078129 0.430346 -0.882377
2005-04-13 06:34:32 51°13.552 2°56.169 16.5686 0.078129 0.43036 -0.882377
2005-04-13 06:34:36 51°13.551 2°56.175 13.1981 0.078129 0.430374 -0.882377
2005-04-13 06:34:42 51°13.551 2°56.182 12.2369 0.078129 0.430374 -0.882377
2005-04-13 06:34:47 51°13.551 2°56.187 11.6614 0.114311 0.638731 0.567127
2005-04-13 06:34:51 51°13.551 2°56.193 11.3384 0.373566 2.232931 -0.17448
2005-04-13 06:34:57 51°13.551 2°56.199 11.0499 0.557036 3.392555 4.645965
2005-04-13 06:35:02 51°13.551 2°56.202 10.7984 2.639945 18.837473 4.106614
2005-04-13 06:35:07 51°13.551 2°56.204 10.5603 2.940473 22.444317 2.758238
2005-04-13 06:35:11 51°13.552 2°56.206 10.3651 2.940473 22.444317 2.758238
2005-04-13 06:35:17 51°13.552 2°56.206 10.2876 2.989012 23.835616 4.544836
2005-04-13 06:35:22 51°13.552 2°56.206 10.1838 2.982076 24.503543 7.780939
2005-04-13 06:35:27 51°13.552 2°56.205 10.1167 2.888726 24.14766 8.589965
2005-04-13 06:35:31 51°13.552 2°56.203 10.027 2.831902 23.903948 8.691093
2005-04-13 06:35:37 51°13.552 2°56.201 10.0759 2.805073 23.941919 9.601247
2005-04-13 06:35:41 51°13.551 2°56.2 9.9716 2.805073 23.941919 9.601247
2005-04-13 06:35:48 51°13.552 2°56.201 9.8298 2.777192 23.882246 10.477691
2005-04-13 06:35:53 51°13.553 2°56.202 9.7622 2.754363 23.823357 11.219298
2005-04-13 06:35:57 51°13.553 2°56.204 9.7473 2.730586 23.709092 11.219298
2005-04-13 06:36:03 51°13.554 2°56.205 9.7013 2.634541 22.865205 11.017042
2005-04-13 06:36:07 51°13.555 2°56.205 9.6923 2.352094 20.254343 11.455264
2005-04-13 06:36:12 51°13.555 2°56.205 9.7265 2.352094 20.254343 11.455264
2005-04-13 06:36:17 51°13.554 2°56.203 9.6561 2.682405 23.444638 10.747366
2005-04-13 06:36:23 51°13.553 2°56.201 9.6396 2.673991 23.444871 11.893486
2005-04-13 06:36:28 51°13.552 2°56.199 9.6106 2.708392 23.835071 12.028324
2005-04-13 06:36:33 51°13.551 2°56.198 9.5667 2.727225 24.070604 11.758648
2005-04-13 06:36:38 51°13.551 2°56.197 9.5489 2.719756 24.044362 12.163161
2005-04-13 06:36:43 51°13.552 2°56.197 9.4955 2.719756 24.044362 12.163161
2005-04-13 06:36:47 51°13.553 2°56.198 9.4713 2.719756 24.063246 12.196871
2005-04-13 06:36:52 51°13.554 2°56.198 9.4674 2.733539 24.220246 11.927195
2005-04-13 06:36:57 51°13.554 2°56.198 9.4303 2.723123 24.140982 12.095742
2005-04-13 06:37:03 51°13.554 2°56.197 9.4414 2.78499 24.766898 11.69123
2005-04-13 06:37:07 51°13.553 2°56.196 9.4168 2.797722 24.921873 11.893486
2005-04-13 06:37:13 51°13.55 2°56.195 9.425 2.797722 24.921873 11.893486
2005-04-13 06:37:18 51°13.548 2°56.194 9.4047 2.818452 25.165561 11.590101
2005-04-13 06:37:23 51°13.545 2°56.193 9.4051 2.836973 25.376411 11.354136
2005-04-13 06:37:27 51°13.543 2°56.193 9.3817 2.844971 25.478852 11.219298
2005-04-13 06:37:33 51°13.541 2°56.192 9.3631 2.852232 25.563234 10.882204
2005-04-13 06:37:37 51°13.541 2°56.192 9.3578 2.856021 25.613411 10.949623
2005-04-13 06:37:43 51°13.542 2°56.191 9.314 2.859178 25.660894 11.08446
2005-04-13 06:37:47 51°13.544 2°56.191 9.3132 2.859178 25.660894 11.08446
2005-04-13 06:37:53 51°13.546 2°56.19 9.3456 2.859494 25.669839 11.050751
2005-04-13 06:37:57 51°13.547 2°56.19 9.3281 2.856337 25.643852 10.54511
2005-04-13 06:38:01 51°13.547 2°56.189 9.3442 2.8576 25.673241 10.376563
2005-04-13 06:38:08 51°13.547 2°56.19 9.3841 2.860126 25.714596 10.106888
2005-04-13 06:38:13 51°13.546 2°56.19 9.4021 2.860126 25.714596 10.106888
2005-04-13 06:38:17 51°13.545 2°56.191 9.4077 2.862862 25.754581 9.736084
2005-04-13 06:38:22 51°13.543 2°56.192 9.4189 2.862968 25.773795 9.533828
2005-04-13 06:38:27 51°13.541 2°56.194 9.3975 2.845183 25.596872 9.331571
2005-04-13 06:38:33 51°13.539 2°56.196 9.3745 2.829398 25.443385 8.893349
2005-04-13 06:38:37 51°13.538 2°56.196 9.3665 2.812667 25.272559 9.129315
2005-04-13 06:38:42 51°13.538 2°56.197 9.3575 2.812667 25.272559 9.129315
2005-04-13 06:38:47 51°13.539 2°56.196 9.3463 2.783099 24.963166 9.39899
2005-04-13 06:38:51 51°13.54 2°56.195 9.3476 2.753532 24.661913 9.196734
2005-04-13 06:38:57 51°13.543 2°56.191 9.3348 2.734278 24.467232 9.028187
2005-04-13 06:39:02 51°13.546 2°56.187 9.3459 2.729228 24.42085 8.691093
2005-04-13 06:39:07 51°13.548 2°56.184 9.347 2.736803 24.506011 8.691093
2005-04-13 06:39:12 51°13.55 2°56.178 9.3691 2.736803 24.506011 8.691093
2005-04-13 06:39:18 51°13.553 2°56.172 9.3999 2.74501 24.596938 8.219161
2005-04-13 06:39:23 51°13.556 2°56.165 9.3949 2.750271 24.658347 8.219161
2005-04-13 06:39:27 51°13.559 2°56.159 9.3994 2.755637 24.71523 8.151742
2005-04-13 06:39:32 51°13.562 2°56.151 9.3876 2.756058 24.726136 8.387708
2005-04-13 06:39:37 51°13.565 2°56.142 9.3582 2.749324 24.662472 8.118033
2005-04-13 06:39:42 51°13.569 2°56.132 9.3488 2.739013 24.556807 8.151742
2005-04-13 06:39:47 51°13.572 2°56.123 9.3502 2.739013 24.556807 8.151742
2005-04-13 06:39:52 51°13.576 2°56.113 9.3284 2.724705 24.405157 7.949486
2005-04-13 06:39:57 51°13.58 2°56.102 9.3162 2.708397 24.236273 8.118033
2005-04-13 06:40:03 51°13.586 2°56.089 9.3195 2.698508 24.134027 8.118033
2005-04-13 06:40:07 51°13.59 2°56.079 9.3075 2.702611 24.179883 8.118033
2005-04-13 06:40:11 51°13.594 2°56.07 9.2884 2.702611 24.179883 8.118033
2005-04-13 06:40:17 51°13.6 2°56.057 9.287 2.716604 24.327012 7.983195
2005-04-13 06:40:21 51°13.604 2°56.047 9.2602 2.731649 24.484729 8.151742
2005-04-13 06:40:27 51°13.61 2°56.033 9.2578 2.744379 24.620393 8.185452
2005-04-13 06:40:32 51°13.616 2°56.019 9.2434 2.756689 24.749271 8.252871
2005-04-13 06:40:37 51°13.62 2°56.009 9.2224 2.765949 24.849829 8.320289
2005-04-13 06:40:41 51°13.625 2°55.998 9.2233 2.765949 24.849829 8.320289
2005-04-13 06:40:47 51°13.63 2°55.986 9.2077 2.772157 24.918037 8.556255
2005-04-13 06:40:53 51°13.636 2°55.974 9.2036 2.780153 25.008002 8.522546
2005-04-13 06:40:57 51°13.639 2°55.965 9.201 2.793096 25.148815 8.421418
2005-04-13 06:41:02 51°13.644 2°55.955 9.1937 2.804565 25.271771 8.724802
2005-04-13 06:41:07 51°13.648 2°55.946 9.189 2.817508 25.411837 8.82593
2005-04-13 06:41:12 51°13.652 2°55.936 9.1911 2.817508 25.411837 8.82593
2005-04-13 06:41:17 51°13.656 2°55.927 9.1797 2.827295 25.51781 8.82593
2005-04-13 06:41:22 51°13.66 2°55.917 9.1916 2.83645 25.618208 8.724802
2005-04-13 06:41:27 51°13.665 2°55.908 9.2001 2.84308 25.693576 8.657383
2005-04-13 06:41:31 51°13.668 2°55.901 9.2041 2.846026 25.727621 8.455127
2005-04-13 06:41:37 51°13.672 2°55.892 9.1968 2.850236 25.776034 8.556255
2005-04-13 06:41:42 51°13.676 2°55.883 9.2101 2.850236 25.776034 8.556255
2005-04-13 06:41:47 51°13.68 2°55.875 9.21 2.854866 25.82631 8.151742
2005-04-13 06:41:52 51°13.685 2°55.865 9.2021 2.857918 25.860283 8.219161
2005-04-13 06:41:57 51°13.688 2°55.857 9.2085 2.858444 25.864937 8.455127
2005-04-13 06:42:02 51°13.692 2°55.848 9.1979 2.856655 25.844734 7.983195
2005-04-13 06:42:07 51°13.696 2°55.839 9.187 2.852235 25.797137 8.320289
2005-04-13 06:42:11 51°13.7 2°55.83 9.1875 2.852235 25.797137 8.320289
2005-04-13 06:42:17 51°13.705 2°55.818 9.1914 2.84529 25.726172 8.387708
2005-04-13 06:42:22 51°13.71 2°55.807 9.1999 2.835819 25.630095 8.28658
2005-04-13 06:42:27 51°13.714 2°55.797 9.1978 2.829926 25.57085 8.556255
2005-04-13 06:42:31 51°13.718 2°55.787 9.1789 2.827295 25.544668 8.657383
2005-04-13 06:42:37 51°13.723 2°55.775 9.1859 2.8294 25.571465 8.960768
2005-04-13 06:42:42 51°13.728 2°55.764 9.1735 2.8294 25.571465 8.960768
2005-04-13 06:42:47 51°13.733 2°55.753 9.1757 2.830557 25.589431 9.028187
2005-04-13 06:42:52 51°13.739 2°55.742 9.1619 2.828242 25.566964 8.960768
2005-04-13 06:42:57 51°13.745 2°55.73 9.1599 2.828558 25.568937 9.230443
2005-04-13 06:43:01 51°13.75 2°55.72 9.1519 2.832873 25.613071 9.028187
2005-04-13 06:43:07 51°13.758 2°55.708 9.1439 2.836766 25.654788 8.893349
2005-04-13 06:43:12 51°13.765 2°55.696 9.1467 2.841186 25.703532 8.758512
2005-04-13 06:43:17 51°13.773 2°55.685 9.1354 2.841186 25.703532 8.758512
2005-04-13 06:43:21 51°13.779 2°55.677 9.1337 2.846974 25.765352 8.556255
2005-04-13 06:43:27 51°13.791 2°55.664 9.1238 2.856656 25.865459 8.85964
2005-04-13 06:43:31 51°13.798 2°55.657 9.1203 2.866127 25.965919 8.488836
2005-04-13 06:43:37 51°13.808 2°55.647 9.1115 2.878861 26.098466 8.758512
2005-04-13 06:43:41 51°13.816 2°55.64 9.1159 2.878861 26.098466 8.758512
2005-04-13 06:43:47 51°13.828 2°55.63 9.1155 2.889596 26.211154 8.82593
2005-04-13 06:43:51 51°13.837 2°55.623 9.1227 2.901068 26.329505 8.455127
2005-04-13 06:43:57 51°13.849 2°55.615 9.1032 2.911171 26.436075 8.724802
2005-04-13 06:44:02 51°13.86 2°55.606 9.0942 2.919381 26.52376 8.219161
2005-04-13 06:44:07 51°13.871 2°55.599 9.0914 2.928853 26.623564 8.28658
2005-04-13 06:44:12 51°13.88 2°55.591 9.0869 2.928853 26.623564 8.28658
2005-04-13 06:44:17 51°13.891 2°55.584 9.0832 2.921801 26.555934 8.387708
2005-04-13 06:44:21 51°13.901 2°55.576 9.0781 2.925591 26.596964 8.488836
2005-04-13 06:44:27 51°13.913 2°55.568 9.0757 2.941484 26.756967 8.792221
2005-04-13 06:44:31 51°13.923 2°55.56 9.072 2.954009 26.888842 8.488836
2005-04-13 06:44:36 51°13.934 2°55.552 9.0744 2.956956 26.924621 8.522546
2005-04-13 06:44:42 51°13.947 2°55.543 9.0548 2.956956 26.924621 8.522546
2005-04-13 06:44:47 51°13.958 2°55.535 9.0654 2.965482 27.015864 8.893349
2005-04-13 06:44:52 51°13.971 2°55.526 9.0587 2.98106 27.174996 8.994477
2005-04-13 06:44:57 51°13.982 2°55.519 9.0553 2.989166 27.262808 8.893349
2005-04-13 06:45:01 51°13.992 2°55.513 9.0499 2.991903 27.293495 9.163024
2005-04-13 06:45:07 51°14.007 2°55.503 9.052 3.000324 27.3827 9.028187
2005-04-13 06:45:12 51°14.018 2°55.497 9.0547 3.000324 27.3827 9.028187
2005-04-13 06:45:17 51°14.03 2°55.489 9.055 3.014219 27.527781 9.601247
2005-04-13 06:45:22 51°14.041 2°55.482 9.0617 3.019061 27.579778 9.061896
2005-04-13 06:45:27 51°14.054 2°55.473 9.061 3.023167 27.623728 9.028187
2005-04-13 06:45:32 51°14.064 2°55.466 9.0631 3.022325 27.61841 9.567537
2005-04-13 06:45:37 51°14.076 2°55.458 9.0649 3.02622 27.658346 9.533828
2005-04-13 06:45:42 51°14.089 2°55.45 9.0676 3.02622 27.658346 9.533828
2005-04-13 06:45:47 51°14.099 2°55.442 9.0688 3.033168 27.728467 9.938341
2005-04-13 06:45:51 51°14.109 2°55.435 9.0706 3.028957 27.687878 10.241725
2005-04-13 06:45:57 51°14.123 2°55.425 9.081 3.034957 27.74781 10.410272
2005-04-13 06:46:02 51°14.134 2°55.415 9.0787 3.029167 27.688729 10.174306
2005-04-13 06:46:07 51°14.145 2°55.406 9.0762 3.02422 27.637528 10.005759
2005-04-13 06:46:12 51°14.156 2°55.396 9.0774 3.02422 27.637528 10.005759
2005-04-13 06:46:17 51°14.168 2°55.386 9.0762 3.029272 27.687242 10.140597
2005-04-13 06:46:22 51°14.181 2°55.373 9.0729 3.016114 27.552589 9.870922
2005-04-13 06:46:27 51°14.191 2°55.362 9.0722 3.020009 27.589967 9.634956
2005-04-13 06:46:32 51°14.202 2°55.348 9.0753 3.021482 27.601657 9.870922
2005-04-13 06:46:37 51°14.213 2°55.335 9.0731 3.019377 27.580425 9.4327
2005-04-13 06:46:41 51°14.221 2°55.323 9.076 3.019377 27.580425 9.4327
2005-04-13 06:46:47 51°14.234 2°55.305 9.0786 3.017693 27.56344 9.129315
2005-04-13 06:46:52 51°14.244 2°55.287 9.0774 3.023798 27.625016 9.163024
2005-04-13 06:46:57 51°14.253 2°55.272 9.084 3.024325 27.631596 8.994477
2005-04-13 06:47:02 51°14.263 2°55.255 9.0837 3.02843 27.673013 8.994477
2005-04-13 06:47:07 51°14.273 2°55.237 9.0838 3.01843 27.572773 9.365281
2005-04-13 06:47:12 51°14.284 2°55.217 9.0927 3.01843 27.572773 9.365281
2005-04-13 06:47:17 51°14.293 2°55.2 9.0863 3.023377 27.622675 8.994477
2005-04-13 06:47:22 51°14.303 2°55.181 9.0915 3.02822 27.670889 8.691093
2005-04-13 06:47:27 51°14.312 2°55.162 9.0903 3.023167 27.61928 8.455127
2005-04-13 06:47:32 51°14.323 2°55.14 9.088 3.017166 27.556865 8.691093
2005-04-13 06:47:37 51°14.333 2°55.122 9.0942 3.026325 27.64732 8.691093
2005-04-13 06:47:41 51°14.341 2°55.106 9.0913 3.026325 27.64732 8.691093
2005-04-13 06:47:47 51°14.354 2°55.081 9.106 3.015272 27.533328 8.691093
2005-04-13 06:47:52 51°14.365 2°55.061 9.0932 3.016851 27.548612 9.061896
2005-04-13 06:47:56 51°14.375 2°55.042 9.0985 3.027062 27.650937 8.792221
2005-04-13 06:48:02 51°14.388 2°55.018 9.0874 3.021903 27.597651 8.927059
2005-04-13 06:48:07 51°14.399 2°54.997 9.0713 3.021272 27.590649 8.82593
2005-04-13 06:48:11 51°14.409 2°54.976 9.0693 3.021272 27.590649 8.82593
2005-04-13 06:48:17 51°14.421 2°54.951 9.0645 3.036746 27.746084 8.556255
2005-04-13 06:48:22 51°14.433 2°54.926 9.0631 3.029799 27.673452 8.792221
2005-04-13 06:48:27 51°14.443 2°54.904 9.0575 3.032641 27.702755 8.623674
2005-04-13 06:48:32 51°14.453 2°54.879 9.042 3.036115 27.739074 9.028187
2005-04-13 06:48:37 51°14.463 2°54.854 9.0297 3.048221 27.86637 9.196734
2005-04-13 06:48:41 51°14.471 2°54.833 9.016 3.048221 27.86637 9.196734
2005-04-13 06:48:47 51°14.482 2°54.801 9.0109 3.05717 27.963165 9.163024
2005-04-13 06:48:52 51°14.493 2°54.773 9.004 3.062855 28.025118 9.702375
2005-04-13 06:48:57 51°14.502 2°54.749 8.9984 3.065066 28.052628 9.870922
2005-04-13 06:49:02 51°14.513 2°54.72 8.9776 3.067066 28.078022 10.039469
2005-04-13 06:49:07 51°14.523 2°54.696 8.944 3.082016 28.237706 10.073178
2005-04-13 06:49:12 51°14.533 2°54.67 8.9207 3.082016 28.237706 10.073178
2005-04-13 06:49:17 51°14.543 2°54.644 8.9069 3.075594 28.186338 10.612529
2005-04-13 06:49:21 51°14.552 2°54.623 8.8741 3.092228 28.362009 10.5114
2005-04-13 06:49:27 51°14.564 2°54.591 8.86 3.088333 28.329715 10.646238
2005-04-13 06:49:31 51°14.573 2°54.568 8.8484 3.098124 28.436848 11.017042
2005-04-13 06:49:36 51°14.583 2°54.542 8.8462 3.10044 28.473478 11.08446
2005-04-13 06:49:42 51°14.595 2°54.51 8.8358 3.10044 28.473478 11.08446
2005-04-13 06:49:47 51°14.605 2°54.486 8.8227 3.125709 28.753971 11.219298
2005-04-13 06:49:51 51°14.614 2°54.463 8.816 3.136344 28.880155 11.590101
2005-04-13 06:49:57 51°14.626 2°54.434 8.821 3.146031 29.001592 11.927195
2005-04-13 06:50:02 51°14.637 2°54.406 8.8095 3.160246 29.169484 12.062033
2005-04-13 06:50:07 51°14.648 2°54.38 8.8054 3.178041 29.361415 11.859777
2005-04-13 06:50:11 51°14.656 2°54.359 8.8062 3.184885 29.442292 12.331708
2005-04-13 06:50:17 51°14.667 2°54.329 8.8032 3.184885 29.442292 12.331708
2005-04-13 06:50:22 51°14.678 2°54.303 8.8055 3.194152 29.5453 12.196871
2005-04-13 06:50:27 51°14.688 2°54.277 8.8007 3.197311 29.587924 12.062033
2005-04-13 06:50:32 51°14.699 2°54.25 8.7979 3.1951 29.568712 12.601383
2005-04-13 06:50:37 51°14.71 2°54.225 8.7962 3.197732 29.601851 11.960905
2005-04-13 06:50:40 51°14.717 2°54.207 8.7876 3.197732 29.601851 11.960905
2005-04-13 06:50:47 51°14.732 2°54.173 8.7971 3.200891 29.640402 11.859777
2005-04-13 06:50:52 51°14.743 2°54.147 8.795 3.198154 29.615787 12.129452
2005-04-13 06:50:57 51°14.753 2°54.121 8.797 3.191414 29.5488 11.623811
2005-04-13 06:51:01 51°14.763 2°54.097 8.7954 3.190046 29.536149 11.69123
2005-04-13 06:51:07 51°14.775 2°54.069 8.7952 3.18973 29.53497 12.028324
2005-04-13 06:51:11 51°14.784 2°54.045 8.797 3.18973 29.53497 12.028324
2005-04-13 06:51:17 51°14.796 2°54.017 8.7989 3.201418 29.657499 11.893486
2005-04-13 06:51:21 51°14.804 2°53.997 8.7973 3.201945 29.665652 11.792358
2005-04-13 06:51:27 51°14.817 2°53.966 8.8058 3.208473 29.731216 11.522683
2005-04-13 06:51:32 51°14.828 2°53.938 8.7996 3.203208 29.677918 11.724939
2005-04-13 06:51:37 51°14.837 2°53.915 8.8118 3.206262 29.70992 11.590101
2005-04-13 06:51:40 51°14.845 2°53.897 8.8032 3.206262 29.70992 11.590101
2005-04-13 06:51:47 51°14.858 2°53.864 8.8042 3.210158 29.749185 11.421554
2005-04-13 06:51:52 51°14.869 2°53.838 8.8114 3.172145 29.359664 11.556392
2005-04-13 06:51:57 51°14.879 2°53.813 8.7982 3.195416 29.598728 11.556392
2005-04-13 06:52:02 51°14.89 2°53.787 8.8067 3.185518 29.495932 11.08446
2005-04-13 06:52:07 51°14.901 2°53.759 8.8076 3.179937 29.436035 11.522683
2005-04-13 06:52:12 51°14.912 2°53.734 8.8079 3.179937 29.436035 11.522683
2005-04-13 06:52:17 51°14.922 2°53.711 8.8119 3.201629 29.657592 11.320426
2005-04-13 06:52:21 51°14.932 2°53.687 8.8042 3.203629 29.678102 11.320426
2005-04-13 06:52:27 51°14.944 2°53.657 8.8181 3.201945 29.659453 11.960905
2005-04-13 06:52:31 51°14.952 2°53.637 8.8181 3.202998 29.672314 11.623811
2005-04-13 06:52:37 51°14.963 2°53.608 8.8069 3.210053 29.745342 11.859777
2005-04-13 06:52:41 51°14.971 2°53.587 8.8111 3.210053 29.745342 11.859777
2005-04-13 06:52:47 51°14.982 2°53.554 8.8155 3.206999 29.712648 11.320426
2005-04-13 06:52:52 51°14.99 2°53.526 8.8147 3.206367 29.704791 12.028324
2005-04-13 06:52:57 51°14.997 2°53.499 8.8241 3.22132 29.858147 12.129452
2005-04-13 06:53:01 51°15.004 2°53.473 8.8322 3.214686 29.787329 12.399127
2005-04-13 06:53:07 51°15.012 2°53.443 8.8265 3.183833 29.467726 12.399127
2005-04-13 06:53:11 51°15.019 2°53.421 8.8325 3.183833 29.467726 12.399127
2005-04-13 06:53:17 51°15.028 2°53.388 8.8104 3.176567 29.396072 11.65752
2005-04-13 06:53:21 51°15.034 2°53.366 8.8098 3.212369 29.76219 12.331708
2005-04-13 06:53:26 51°15.043 2°53.335 8.8011 3.216371 29.803224 11.893486
2005-04-13 06:53:32 51°15.052 2°53.305 8.7885 3.203945 29.671695 11.859777
2005-04-13 06:53:37 51°15.06 2°53.278 8.7836 3.209421 29.724369 11.724939
2005-04-13 06:53:43 51°15.069 2°53.244 8.7756 3.212369 29.75252 10.983332
2005-04-13 06:53:47 51°15.076 2°53.223 8.7735 3.212369 29.75252 10.983332
2005-04-13 06:53:52 51°15.085 2°53.192 8.7722 3.210895 29.74086 11.219298
2005-04-13 06:53:57 51°15.092 2°53.168 8.774 3.224058 29.881381 10.275435
2005-04-13 06:54:01 51°15.099 2°53.142 8.7747 3.227007 29.918578 9.904631
2005-04-13 06:54:07 51°15.108 2°53.113 8.7753 3.227323 29.93016 9.668665
2005-04-13 06:54:11 51°15.115 2°53.088 8.7707 3.227323 29.93016 9.668665
2005-04-13 06:54:17 51°15.124 2°53.058 8.7697 3.233431 29.999142 8.994477
2005-04-13 06:54:22 51°15.133 2°53.028 8.7813 3.147822 29.129045 9.163024
2005-04-13 06:54:27 51°15.14 2°53.004 8.7739 3.107918 28.723079 9.39899
2005-04-13 06:54:31 51°15.147 2°52.978 8.7749 2.105253 18.726587 8.82593
2005-04-13 06:54:37 51°15.156 2°52.948 8.7699 2.685153 24.449517 8.82593
2005-04-13 06:54:42 51°15.164 2°52.92 8.7718 2.685153 24.449517 8.82593
2005-04-13 06:54:47 51°15.172 2°52.893 8.7662 3.252176 30.206489 8.82593
2005-04-13 06:54:51 51°15.179 2°52.868 8.7596 3.252387 30.208655 8.623674
2005-04-13 06:54:57 51°15.188 2°52.838 8.7512 3.252071 30.204001 8.219161
2005-04-13 06:55:02 51°15.195 2°52.81 8.7611 3.252281 30.206167 8.522546
2005-04-13 06:55:07 51°15.203 2°52.782 8.7498 3.252492 30.209036 8.85964
2005-04-13 06:55:12 51°15.212 2°52.752 8.7464 3.252492 30.209036 8.85964
2005-04-13 06:55:17 51°15.219 2°52.727 8.7361 3.25186 30.20324 8.724802
2005-04-13 06:55:22 51°15.227 2°52.696 8.739 3.251755 30.204965 8.589965
2005-04-13 06:55:27 51°15.233 2°52.671 8.7352 3.251018 30.202299 8.82593
2005-04-13 06:55:31 51°15.24 2°52.646 8.7321 3.251018 30.205109 8.960768
2005-04-13 06:55:35 51°15.245 2°52.623 8.7298 3.249649 30.19243 9.297862
2005-04-13 06:55:42 51°15.254 2°52.583 8.7336 3.249649 30.19243 9.297862
2005-04-13 06:55:47 51°15.26 2°52.557 8.7248 3.249965 30.202002 9.331571
2005-04-13 06:55:51 51°15.266 2°52.532 8.7178 3.250175 30.209792 9.129315
2005-04-13 06:55:57 51°15.273 2°52.5 8.7187 3.25007 30.21152 9.567537
2005-04-13 06:56:01 51°15.278 2°52.477 8.7189 3.250702 30.220837 9.769794
2005-04-13 06:56:07 51°15.287 2°52.44 8.711 3.251123 30.227284 10.174306
2005-04-13 06:56:12 51°15.294 2°52.411 8.7156 3.251123 30.227284 10.174306
2005-04-13 06:56:17 51°15.3 2°52.382 8.7095 3.251229 30.230479 10.848494
2005-04-13 06:56:22 51°15.307 2°52.354 8.7088 3.251545 30.236547 10.949623
2005-04-13 06:56:27 51°15.313 2°52.326 8.7039 3.252282 30.246955 10.376563
2005-04-13 06:56:31 51°15.318 2°52.303 8.7058 3.252808 30.258013 11.556392
2005-04-13 06:56:37 51°15.324 2°52.271 8.7041 3.253019 30.260183 11.387845
2005-04-13 06:56:42 51°15.33 2°52.241 8.7051 3.253019 30.260183 11.387845
2005-04-13 06:56:47 51°15.336 2°52.212 8.7084 3.253862 30.270976 11.320426
2005-04-13 06:56:51 51°15.34 2°52.186 8.7067 3.252914 30.264032 11.623811
2005-04-13 06:56:57 51°15.347 2°52.154 8.7052 3.253862 30.276617 11.69123
2005-04-13 06:57:01 51°15.351 2°52.13 8.7081 3.255231 30.293546 11.522683
2005-04-13 06:57:07 51°15.358 2°52.092 8.6985 3.254915 30.291702 12.23058
2005-04-13 06:57:11 51°15.363 2°52.068 8.7021 3.255863 30.302176 12.23058
2005-04-13 06:57:17 51°15.369 2°52.036 8.6944 3.255863 30.302176 12.23058
2005-04-13 06:57:22 51°15.375 2°52.004 8.6976 3.256389 30.307603 12.432836
2005-04-13 06:57:27 51°15.38 2°51.977 8.6944 3.257653 30.322041 11.960905
2005-04-13 06:57:31 51°15.385 2°51.951 8.6917 3.259654 30.343373 12.331708
2005-04-13 06:57:37 51°15.391 2°51.918 8.6897 3.259654 30.342666 12.466546
2005-04-13 06:57:42 51°15.397 2°51.885 8.6919 3.259654 30.342666 12.466546
2005-04-13 06:57:47 51°15.403 2°51.856 8.6869 3.259549 30.344409 12.399127
2005-04-13 06:57:51 51°15.407 2°51.833 8.6908 3.260707 30.356352 12.23058
2005-04-13 06:57:56 51°15.412 2°51.803 8.6917 3.260602 30.358803 12.163161
2005-04-13 06:58:02 51°15.418 2°51.767 8.6905 3.262287 30.37901 12.533965
2005-04-13 06:58:07 51°15.42 2°51.74 8.6901 3.261444 30.37103 11.387845
2005-04-13 06:58:12 51°15.422 2°51.707 8.6921 3.261444 30.37103 11.387845
2005-04-13 06:58:17 51°15.423 2°51.679 8.6953 3.26155 30.373532 11.69123
2005-04-13 06:58:22 51°15.423 2°51.645 8.6936 3.256389 30.321732 11.65752
2005-04-13 06:58:27 51°15.423 2°51.615 8.6929 3.255863 30.317716 11.556392
2005-04-13 06:58:32 51°15.422 2°51.585 8.6998 3.258811 30.348124 11.08446
2005-04-13 06:58:37 51°15.421 2°51.56 8.7019 3.258074 30.339815 11.590101
2005-04-13 06:58:41 51°15.42 2°51.539 8.6969 3.258074 30.339815 11.590101
2005-04-13 06:58:47 51°15.418 2°51.509 8.7031 3.258074 30.339107 11.320426
2005-04-13 06:58:53 51°15.416 2°51.48 8.7038 3.255547 30.313045 11.11817
2005-04-13 06:58:57 51°15.415 2°51.463 8.6977 3.259759 30.355069 11.219298
2005-04-13 06:59:02 51°15.413 2°51.439 8.6988 3.260391 30.360877 10.882204
2005-04-13 06:59:07 51°15.411 2°51.418 8.6979 3.261128 30.365648 10.983332
2005-04-13 06:59:12 51°15.41 2°51.398 8.6924 3.262181 30.376508 10.915913
2005-04-13 06:59:16 51°15.409 2°51.383 8.6951 3.262181 30.376508 10.915913
2005-04-13 06:59:22 51°15.407 2°51.362 8.6937 3.261128 30.362817 10.848494
2005-04-13 06:59:27 51°15.406 2°51.343 8.692 3.262919 30.38057 10.882204
2005-04-13 06:59:32 51°15.405 2°51.327 8.6904 3.263445 30.386708 10.983332
2005-04-13 06:59:37 51°15.405 2°51.311 8.6904 3.261971 30.372212 11.151879
2005-04-13 06:59:42 51°15.404 2°51.293 8.6892 3.261971 30.372212 11.151879
2005-04-13 06:59:47 51°15.404 2°51.279 8.6897 3.264288 30.397521 11.08446
2005-04-13 06:59:52 51°15.403 2°51.265 8.6893 3.260075 30.356204 10.747366
2005-04-13 06:59:57 51°15.403 2°51.251 8.6924 3.26513 30.409045 10.983332
2005-04-13 07:00:02 51°15.403 2°51.237 8.693 3.26513 30.408336 10.983332
2005-04-13 07:00:07 51°15.404 2°51.223 8.6943 3.264709 30.405409 10.646238
2005-04-13 07:00:12 51°15.404 2°51.211 8.6949 3.264709 30.405409 10.646238
2005-04-13 07:00:17 51°15.404 2°51.199 8.6975 3.267342 30.436114 10.443982
2005-04-13 07:00:21 51°15.405 2°51.189 8.6925 3.266499 30.426713 10.612529
2005-04-13 07:00:27 51°15.405 2°51.175 8.6929 3.266605 30.427799 10.713657
2005-04-13 07:00:32 51°15.406 2°51.165 8.6935 3.267342 30.435404 10.814785
2005-04-13 07:00:37 51°15.407 2°51.153 8.6954 3.265236 30.412258 10.410272
2005-04-13 07:00:41 51°15.408 2°51.146 8.6974 3.265236 30.412258 10.410272
2005-04-13 07:00:47 51°15.409 2°51.133 8.6951 3.267974 30.439085 10.410272
2005-04-13 07:00:52 51°15.41 2°51.123 8.6946 3.246595 30.21795 10.477691
2005-04-13 07:00:57 51°15.412 2°51.115 8.6954 3.249544 30.249045 10.578819
2005-04-13 07:01:02 51°15.413 2°51.105 8.6914 3.247754 30.231298 10.376563
2005-04-13 07:01:07 51°15.414 2°51.097 8.6918 3.251018 30.264242 10.309144
2005-04-13 07:01:12 51°15.416 2°51.088 8.6912 3.251018 30.264242 10.309144
2005-04-13 07:01:17 51°15.418 2°51.079 8.6964 3.244384 30.19516 10.073178
2005-04-13 07:01:21 51°15.419 2°51.073 8.6956 3.249965 30.252682 10.713657
2005-04-13 07:01:27 51°15.421 2°51.063 8.6933 3.247438 30.226632 10.747366
2005-04-13 07:01:32 51°15.423 2°51.055 8.6923 3.251545 30.26967 10.140597
2005-04-13 07:01:37 51°15.425 2°51.048 8.6922 3.254072 30.297138 10.140597
2005-04-13 07:01:42 51°15.427 2°51.041 8.6898 3.254072 30.297138 10.140597
2005-04-13 07:01:46 51°15.428 2°51.035 8.6899 3.265551 30.416226 10.713657
2005-04-13 07:01:51 51°15.43 2°51.028 8.6925 3.262603 30.385101 10.309144
2005-04-13 07:01:57 51°15.432 2°51.02 8.6914 3.267026 30.430726 10.443982
2005-04-13 07:02:03 51°15.434 2°51.012 8.691 3.271238 30.474187 10.983332
2005-04-13 07:02:07 51°15.436 2°51.006 8.6905 3.26334 30.393413 10.679947
2005-04-13 07:02:12 51°15.438 2°51 8.6909 3.26334 30.393413 10.679947
2005-04-13 07:02:17 51°15.44 2°50.995 8.6928 3.269764 30.460395 10.781076
2005-04-13 07:02:21 51°15.441 2°50.99 8.6895 3.264393 30.407111 10.713657
2005-04-13 07:02:27 51°15.443 2°50.983 8.6888 3.270607 30.469798 10.410272
2005-04-13 07:02:32 51°15.445 2°50.976 8.6899 3.273134 30.496591 10.848494
2005-04-13 07:02:36 51°15.447 2°50.972 8.6899 3.26829 30.445893 10.612529
2005-04-13 07:02:41 51°15.449 2°50.966 8.6895 3.26829 30.445893 10.612529
2005-04-13 07:02:47 51°15.45 2°50.96 8.6894 3.273029 30.495504 10.983332
2005-04-13 07:02:51 51°15.452 2°50.955 8.6922 3.274187 30.50746 10.949623
2005-04-13 07:02:57 51°15.454 2°50.949 8.6909 3.273029 30.495504 10.882204
2005-04-13 07:03:02 51°15.456 2°50.943 8.6888 3.268816 30.452745 10.882204
2005-04-13 07:03:07 51°15.457 2°50.938 8.6909 3.274293 30.509969 10.646238
2005-04-13 07:03:11 51°15.459 2°50.934 8.6906 3.274293 30.509969 10.646238
2005-04-13 07:03:17 51°15.46 2°50.928 8.6902 3.274293 30.51068 10.646238
2005-04-13 07:03:21 51°15.462 2°50.924 8.6904 3.273766 30.504534 11.017042
2005-04-13 07:03:27 51°15.464 2°50.918 8.6916 3.274608 30.51323 10.54511
2005-04-13 07:03:31 51°15.465 2°50.914 8.6892 3.275135 30.517953 10.578819
2005-04-13 07:03:36 51°15.466 2°50.909 8.6902 3.273555 30.503072 10.612529
2005-04-13 07:03:42 51°15.468 2°50.903 8.6913 3.273555 30.503072 10.612529
2005-04-13 07:03:47 51°15.469 2°50.899 8.6925 3.266921 30.434606 10.915913
2005-04-13 07:03:52 51°15.471 2°50.894 8.6934 3.270607 30.47264 10.646238
2005-04-13 07:03:57 51°15.472 2°50.89 8.6952 3.275451 30.521214 10.140597
2005-04-13 07:04:02 51°15.473 2°50.885 8.6933 3.275451 30.521926 10.208016
2005-04-13 07:04:07 51°15.474 2°50.881 8.6947 3.271976 30.487479 11.050751
2005-04-13 07:04:11 51°15.476 2°50.877 8.6963 3.271976 30.487479 11.050751
2005-04-13 07:04:17 51°15.477 2°50.873 8.697 3.273029 30.497637 10.646238
2005-04-13 07:04:22 51°15.479 2°50.868 8.6975 3.274293 30.509969 10.443982
2005-04-13 07:04:27 51°15.48 2°50.864 8.6981 3.272713 30.492955 10.5114
2005-04-13 07:04:32 51°15.481 2°50.86 8.6986 3.271344 30.476695 10.443982
2005-04-13 07:04:37 51°15.482 2°50.856 8.6983 3.271133 30.475942 11.017042
2005-04-13 07:04:42 51°15.484 2°50.852 8.7022 3.273871 30.502066 10.646238
2005-04-13 07:04:47 51°15.485 2°50.848 8.6997 3.273871 30.502066 10.646238
2005-04-13 07:04:51 51°15.486 2°50.845 8.6996 3.268921 30.450992 10.5114
2005-04-13 07:04:57 51°15.487 2°50.841 8.6982 3.272818 30.490487 10.713657
2005-04-13 07:05:02 51°15.489 2°50.836 8.6987 3.272397 30.48543 10.241725
2005-04-13 07:05:07 51°15.49 2°50.833 8.701 3.270606 30.465537 10.309144
2005-04-13 07:05:11 51°15.491 2°50.83 8.7023 3.270606 30.465537 10.309144
2005-04-13 07:05:17 51°15.492 2°50.826 8.7014 3.276083 30.522755 10.477691
2005-04-13 07:05:21 51°15.493 2°50.822 8.6998 3.275346 30.513724 10.376563
2005-04-13 07:05:27 51°15.494 2°50.818 8.7001 3.274292 30.503568 10.781076
2005-04-13 07:05:32 51°15.495 2°50.815 8.6994 3.274292 30.503568 10.679947
2005-04-13 07:05:37 51°15.497 2°50.811 8.6993 3.270501 30.46445 10.309144
2005-04-13 07:05:41 51°15.498 2°50.808 8.7034 3.270501 30.46445 10.309144
2005-04-13 07:05:47 51°15.499 2°50.804 8.6987 3.267974 30.436956 10.241725
2005-04-13 07:05:52 51°15.5 2°50.8 8.7 3.274503 30.503609 10.342853
2005-04-13 07:05:56 51°15.501 2°50.797 8.7018 3.27503 30.509753 10.646238
2005-04-13 07:06:02 51°15.502 2°50.792 8.7008 3.27166 30.475692 10.578819
2005-04-13 07:06:07 51°15.503 2°50.789 8.7 3.274714 30.507915 10.679947
2005-04-13 07:06:12 51°15.505 2°50.784 8.6984 3.277347 30.535085 10.679947
2005-04-13 07:06:17 51°15.506 2°50.78 8.7003 3.277347 30.535085 10.679947
2005-04-13 07:06:21 51°15.506 2°50.777 8.6998 3.275346 30.513724 10.646238
2005-04-13 07:06:27 51°15.507 2°50.772 8.7007 3.272081 30.479328 10.208016
2005-04-13 07:06:32 51°15.508 2°50.769 8.7 3.267974 30.436956 10.275435
2005-04-13 07:06:36 51°15.509 2°50.765 8.6996 3.275135 30.512262 10.342853
2005-04-13 07:06:42 51°15.51 2°50.76 8.7017 3.275135 30.512262 10.342853
2005-04-13 07:06:47 51°15.511 2°50.756 8.704 3.274503 30.505031 10.5114
2005-04-13 07:06:52 51°15.512 2°50.752 8.6988 3.272713 30.487268 10.309144
2005-04-13 07:06:57 51°15.513 2°50.748 8.6988 3.27166 30.476402 10.073178
2005-04-13 07:07:02 51°15.513 2°50.743 8.699 3.272818 30.487644 10.54511
2005-04-13 07:07:07 51°15.514 2°50.739 8.7002 3.273766 30.498135 10.477691
2005-04-13 07:07:12 51°15.515 2°50.735 8.6983 3.273766 30.498135 10.477691
2005-04-13 07:07:17 51°15.516 2°50.731 8.699 3.271976 30.479662 10.275435
2005-04-13 07:07:22 51°15.516 2°50.726 8.6997 3.273345 30.492366 10.309144
2005-04-13 07:07:27 51°15.517 2°50.722 8.7017 3.271765 30.476068 10.410272
2005-04-13 07:07:32 51°15.517 2°50.718 8.6987 3.274398 30.505366 10.275435
2005-04-13 07:07:37 51°15.518 2°50.714 8.6995 3.268816 30.447776 10.410272
2005-04-13 07:07:42 51°15.519 2°50.709 8.6975 3.268816 30.447776 10.410272
2005-04-13 07:07:47 51°15.519 2°50.705 8.6984 3.270396 30.464074 10.410272
2005-04-13 07:07:52 51°15.52 2°50.7 8.6994 3.271133 30.47168 10.309144
2005-04-13 07:07:56 51°15.52 2°50.697 8.6995 3.273345 30.494499 10.443982
2005-04-13 07:08:02 51°15.521 2°50.691 8.7004 3.271554 30.476026 10.54511
2005-04-13 07:08:07 51°15.521 2°50.687 8.6991 3.270396 30.464074 10.241725
2005-04-13 07:08:12 51°15.521 2°50.683 8.7005 3.270396 30.464074 10.241725
2005-04-13 07:08:17 51°15.522 2°50.678 8.6989 3.273871 30.499932 10.140597
2005-04-13 07:08:22 51°15.522 2°50.674 8.6993 3.273871 30.500643 10.208016
2005-04-13 07:08:27 51°15.522 2°50.67 8.6989 3.271028 30.471303 10.410272
2005-04-13 07:08:32 51°15.523 2°50.665 8.701 3.268606 30.444894 9.736084
2005-04-13 07:08:37 51°15.523 2°50.661 8.6989 3.272502 30.485095 10.275435
2005-04-13 07:08:41 51°15.523 2°50.658 8.7 3.272502 30.485095 10.275435
2005-04-13 07:08:47 51°15.523 2°50.652 8.7029 3.274924 30.5108 10.309144
2005-04-13 07:08:51 51°15.523 2°50.648 8.7028 3.274503 30.506453 9.97205
2005-04-13 07:08:57 51°15.524 2°50.643 8.6998 3.268606 30.445603 10.578819
2005-04-13 07:09:01 51°15.524 2°50.64 8.6998 3.275662 30.517696 10.443982
2005-04-13 07:09:07 51°15.524 2°50.634 8.7023 3.276188 30.523841 10.410272
2005-04-13 07:09:12 51°15.524 2°50.63 8.7018 3.276188 30.523841 10.410272
2005-04-13 07:09:16 51°15.524 2°50.627 8.701 3.273661 30.497759 10.275435
2005-04-13 07:09:22 51°15.523 2°50.622 8.7031 3.275346 30.514436 10.039469
2005-04-13 07:09:27 51°15.523 2°50.618 8.7027 3.272818 30.486934 10.140597
2005-04-13 07:09:32 51°15.523 2°50.613 8.7032 3.274608 30.506117 9.97205
2005-04-13 07:09:36 51°15.523 2°50.609 8.7015 3.27345 30.494164 10.309144
2005-04-13 07:09:42 51°15.523 2°50.604 8.699 3.273345 30.493077 10.073178
2005-04-13 07:09:47 51°15.522 2°50.6 8.6983 3.273345 30.493077 10.073178
2005-04-13 07:09:52 51°15.522 2°50.596 8.6993 3.267763 30.435493 10.342853
2005-04-13 07:09:57 51°15.522 2°50.593 8.6987 3.27524 30.511926 10.578819
2005-04-13 07:10:01 51°15.521 2°50.589 8.7032 3.274503 30.503609 10.781076
2005-04-13 07:10:06 51°15.521 2°50.585 8.7 3.273239 30.49128 10.54511
2005-04-13 07:10:12 51°15.52 2°50.58 8.6992 3.276399 30.523881 10.410272
2005-04-13 07:10:16 51°15.52 2°50.577 8.7024 3.276399 30.523881 10.410272
2005-04-13 07:10:21 51°15.519 2°50.574 8.7039 3.268395 30.442721 10.477691
2005-04-13 07:10:27 51°15.518 2°50.569 8.7032 3.274292 30.50499 10.410272
2005-04-13 07:10:31 51°15.518 2°50.566 8.703 3.270922 30.470217 10.309144
2005-04-13 07:10:37 51°15.517 2°50.562 8.7087 3.276188 30.52313 10.275435
2005-04-13 07:10:41 51°15.516 2°50.559 8.7025 3.276188 30.52313 10.275435
2005-04-13 07:10:47 51°15.515 2°50.554 8.7022 3.278084 30.542693 9.938341
2005-04-13 07:10:51 51°15.515 2°50.551 8.7062 3.268395 30.442721 10.376563
2005-04-13 07:10:57 51°15.514 2°50.548 8.7086 3.275767 30.51736 10.208016
2005-04-13 07:11:02 51°15.512 2°50.544 8.7056 3.279032 30.550339 10.578819
2005-04-13 07:11:07 51°15.511 2°50.541 8.7045 3.275872 30.517735 10.376563
2005-04-13 07:11:12 51°15.511 2°50.538 8.7078 3.275872 30.517735 10.376563
2005-04-13 07:11:17 51°15.509 2°50.535 8.7061 3.27524 30.510504 10.477691
2005-04-13 07:11:21 51°15.509 2°50.533 8.7062 3.277241 30.531863 10.241725
2005-04-13 07:11:27 51°15.507 2°50.529 8.7096 3.274082 30.498551 10.208016
2005-04-13 07:11:32 51°15.506 2°50.526 8.7091 3.276293 30.519948 9.938341
2005-04-13 07:11:37 51°15.505 2°50.523 8.7087 3.275662 30.514851 10.275435
2005-04-13 07:11:41 51°15.504 2°50.521 8.7073 3.275662 30.514851 10.275435
2005-04-13 07:11:47 51°15.502 2°50.518 8.7062 3.277347 30.531527 10.073178
2005-04-13 07:11:52 51°15.501 2°50.515 8.7069 3.277452 30.531902 10.174306
2005-04-13 07:11:55 51°15.5 2°50.514 8.7091 3.278716 30.543519 10.5114
2005-04-13 07:12:02 51°15.498 2°50.511 8.7075 3.278189 30.536662 10.208016
2005-04-13 07:12:07 51°15.497 2°50.508 8.7085 3.277136 30.525796 10.578819
2005-04-13 07:12:12 51°15.495 2°50.506 8.7056 3.277136 30.525796 10.578819
2005-04-13 07:12:17 51°15.494 2°50.504 8.706 3.27366 30.490651 10.309144
2005-04-13 07:12:22 51°15.492 2°50.502 8.7044 3.271133 30.464578 10.140597
2005-04-13 07:12:27 51°15.491 2°50.5 8.7038 3.277873 30.534825 10.140597
2005-04-13 07:12:32 51°15.49 2°50.498 8.7046 3.278716 30.543519 10.073178
2005-04-13 07:12:36 51°15.489 2°50.497 8.7032 3.276609 30.521785 10.612529
2005-04-13 07:12:42 51°15.487 2°50.495 8.7009 3.276609 30.521785 10.612529
2005-04-13 07:12:47 51°15.486 2°50.494 8.7067 3.279242 30.548953 10.005759
2005-04-13 07:12:52 51°15.484 2°50.493 8.7012 3.276609 30.522497 10.275435
2005-04-13 07:12:56 51°15.483 2°50.491 8.7026 3.274714 30.503649 10.073178
2005-04-13 07:13:02 51°15.482 2°50.49 8.6962 3.280506 30.563419 10.646238
2005-04-13 07:13:07 51°15.481 2°50.489 8.7 3.281138 30.56994 10.005759
2005-04-13 07:13:11 51°15.48 2°50.488 8.6948 3.281138 30.56994 10.005759
2005-04-13 07:13:17 51°15.479 2°50.487 8.6957 3.277136 30.530065 10.342853
2005-04-13 07:13:23 51°15.477 2°50.486 8.6941 3.277136 30.530065 10.376563
2005-04-13 07:13:27 51°15.476 2°50.485 8.6936 3.284403 30.605777 10.848494
2005-04-13 07:13:32 51°15.476 2°50.484 8.6932 3.28356 30.598507 10.713657
2005-04-13 07:13:37 51°15.475 2°50.484 8.6953 3.277768 30.540145 10.443982
2005-04-13 07:13:42 51°15.474 2°50.483 8.7028 3.277768 30.540145 10.443982
2005-04-13 07:13:47 51°15.473 2°50.482 8.696 3.283981 30.604996 10.275435
2005-04-13 07:13:52 51°15.472 2°50.481 8.6954 3.280927 30.574893 10.140597
2005-04-13 07:13:56 51°15.471 2°50.481 8.6938 3.275978 30.524514 10.443982
2005-04-13 07:14:02 51°15.47 2°50.48 8.6996 3.283666 30.604588 10.5114
2005-04-13 07:14:07 51°15.469 2°50.48 8.6972 3.281243 30.578867 10.781076
2005-04-13 07:14:12 51°15.468 2°50.479 8.6987 3.281243 30.578867 10.781076
2005-04-13 07:14:17 51°15.468 2°50.479 8.7042 3.282823 30.593749 10.54511
2005-04-13 07:14:22 51°15.467 2°50.478 8.7017 3.285982 30.626368 10.713657
2005-04-13 07:14:27 51°15.466 2°50.478 8.7007 3.279979 30.564396 10.54511
2005-04-13 07:14:31 51°15.465 2°50.477 8.7023 3.280401 30.570883 10.781076
2005-04-13 07:14:37 51°15.465 2°50.476 8.7038 3.283455 30.600273 10.5114
2005-04-13 07:14:41 51°15.464 2°50.476 8.6997 3.283455 30.600273 10.5114
2005-04-13 07:14:47 51°15.464 2°50.475 8.6976 3.280717 30.572719 10.747366
2005-04-13 07:14:52 51°15.463 2°50.475 8.699 3.284297 30.607544 10.477691
2005-04-13 07:14:57 51°15.463 2°50.474 8.7039 3.281559 30.577851 10.5114
2005-04-13 07:15:01 51°15.462 2°50.473 8.7062 3.282086 30.582574 10.814785
2005-04-13 07:15:07 51°15.461 2°50.473 8.7034 3.28177 30.579313 10.443982
2005-04-13 07:15:12 51°15.46 2°50.473 8.6996 3.283455 30.595993 10.578819
2005-04-13 07:15:17 51°15.459 2°50.473 8.6961 3.283455 30.595993 10.578819
2005-04-13 07:15:22 51°15.458 2°50.473 8.7004 3.281138 30.572791 10.747366
2005-04-13 07:15:27 51°15.458 2°50.472 8.7007 3.280401 30.566607 10.410272
2005-04-13 07:15:31 51°15.457 2°50.472 8.7003 3.283139 30.592732 10.54511
2005-04-13 07:15:37 51°15.457 2°50.471 8.6982 3.284087 30.602516 10.983332
2005-04-13 07:15:40 51°15.456 2°50.471 8.6984 3.284087 30.602516 10.983332
2005-04-13 07:15:47 51°15.456 2°50.47 8.6958 3.280295 30.564807 10.915913
2005-04-13 07:15:51 51°15.456 2°50.469 8.6964 3.281454 30.577477 10.713657
2005-04-13 07:15:56 51°15.456 2°50.468 8.6984 3.276715 30.529987 10.477691
2005-04-13 07:16:03 51°15.455 2°50.467 8.7001 3.282507 30.588348 11.017042
2005-04-13 07:16:07 51°15.455 2°50.467 8.697 3.28177 30.580738 10.713657
2005-04-13 07:16:12 51°15.454 2°50.466 8.6961 3.28177 30.580738 10.713657
2005-04-13 07:16:16 51°15.454 2°50.465 8.6966 3.281138 30.576354 10.814785
2005-04-13 07:16:22 51°15.454 2°50.464 8.6974 3.282086 30.586852 10.5114
2005-04-13 07:16:27 51°15.453 2°50.463 8.6945 3.278084 30.544829 10.443982
2005-04-13 07:16:31 51°15.453 2°50.463 8.6956 3.2784 30.54809 10.309144
2005-04-13 07:16:36 51°15.453 2°50.462 8.6932 3.280927 30.57418 10.713657
2005-04-13 07:16:41 51°15.453 2°50.461 8.6937 3.280927 30.57418 10.713657
2005-04-13 07:16:46 51°15.453 2°50.46 8.693 3.28019 30.567995 10.612529
2005-04-13 07:16:52 51°15.453 2°50.46 8.6938 3.280717 30.573431 10.410272
2005-04-13 07:16:57 51°15.452 2°50.459 8.6962 3.274819 30.512558 10.5114
2005-04-13 07:17:02 51°15.452 2°50.458 8.6987 3.273239 30.496967 10.679947
2005-04-13 07:17:07 51°15.452 2°50.457 8.6984 3.277347 30.539357 10.646238
2005-04-13 07:17:12 51°15.452 2°50.457 8.6968 3.277347 30.539357 10.646238
2005-04-13 07:17:17 51°15.452 2°50.456 8.6958 3.277979 30.545879 10.612529
2005-04-13 07:17:22 51°15.452 2°50.455 8.6978 3.276609 30.533171 10.54511
2005-04-13 07:17:27 51°15.452 2°50.454 8.6988 3.277241 30.538982 10.477691
2005-04-13 07:17:31 51°15.452 2°50.454 8.6994 3.278821 30.554575 11.253007
2005-04-13 07:17:37 51°15.452 2°50.453 8.7012 3.279242 30.557499 10.747366
2005-04-13 07:17:42 51°15.452 2°50.452 8.7023 3.279242 30.557499 10.747366
2005-04-13 07:17:47 51°15.451 2°50.451 8.6986 3.279242 30.557499 11.151879
2005-04-13 07:17:52 51°15.451 2°50.451 8.7011 3.277768 30.543705 10.713657
2005-04-13 07:17:57 51°15.451 2°50.45 8.7004 3.278716 30.552776 10.747366
2005-04-13 07:18:00 51°15.451 2°50.449 8.7015 3.278084 30.544829 10.983332
2005-04-13 07:18:07 51°15.451 2°50.448 8.7009 3.278084 30.542693 10.477691
2005-04-13 07:18:11 51°15.451 2°50.448 8.7019 3.278084 30.542693 10.477691
2005-04-13 07:18:17 51°15.451 2°50.447 8.6999 3.275556 30.516609 11.354136
2005-04-13 07:18:21 51°15.451 2°50.446 8.701 3.27682 30.529651 10.612529
2005-04-13 07:18:27 51°15.451 2°50.445 8.7018 3.272397 30.484719 10.578819
2005-04-13 07:18:31 51°15.451 2°50.444 8.7039 3.276504 30.527102 11.556392
2005-04-13 07:18:37 51°15.451 2°50.443 8.7054 3.27345 30.494875 11.017042
2005-04-13 07:18:43 51°15.451 2°50.442 8.7053 3.268184 30.440548 11.050751
2005-04-13 07:18:47 51°15.451 2°50.442 8.705 3.268184 30.440548 11.050751
2005-04-13 07:18:52 51°15.451 2°50.441 8.7047 3.268606 30.444894 10.983332
2005-04-13 07:18:57 51°15.451 2°50.44 8.7036 3.278294 30.545579 11.11817
2005-04-13 07:19:01 51°15.451 2°50.44 8.7057 3.272397 30.484008 10.915913
2005-04-13 07:19:07 51°15.451 2°50.438 8.7051 3.270922 30.466666 10.882204
2005-04-13 07:19:11 51°15.451 2°50.438 8.7049 3.276715 30.526429 11.08446
2005-04-13 07:19:17 51°15.451 2°50.437 8.7043 3.276715 30.526429 11.08446
2005-04-13 07:19:22 51°15.451 2°50.436 8.7035 3.277347 30.532238 10.781076
2005-04-13 07:19:27 51°15.452 2°50.435 8.7068 3.272502 30.482963 10.781076
2005-04-13 07:19:32 51°15.451 2°50.435 8.7075 3.271554 30.473895 10.781076
2005-04-13 07:19:37 51°15.452 2°50.433 8.7068 3.269448 30.450746 11.219298
2005-04-13 07:19:41 51°15.452 2°50.433 8.7056 3.269448 30.450746 11.219298
2005-04-13 07:19:47 51°15.452 2°50.432 8.7082 3.271344 30.470301 11.08446
2005-04-13 07:19:51 51°15.452 2°50.431 8.7051 3.272923 30.486599 11.11817
2005-04-13 07:19:56 51°15.452 2°50.43 8.704 3.272607 30.48405 10.848494
2005-04-13 07:20:02 51°15.452 2°50.429 8.7042 3.273134 30.487351 10.983332
2005-04-13 07:20:07 51°15.452 2°50.429 8.7095 3.265762 30.411309 10.949623
2005-04-13 07:20:12 51°15.452 2°50.428 8.7065 3.265762 30.411309 10.949623
2005-04-13 07:20:17 51°15.452 2°50.427 8.7048 3.271554 30.471764 11.556392
2005-04-13 07:20:22 51°15.452 2°50.426 8.7032 3.27187 30.474313 11.65752
2005-04-13 07:20:27 51°15.452 2°50.425 8.7026 3.269027 30.445691 11.320426
2005-04-13 07:20:31 51°15.452 2°50.424 8.702 3.269553 30.450413 10.5114
2005-04-13 07:20:37 51°15.452 2°50.424 8.7035 3.266815 30.423589 11.08446
2005-04-13 07:20:42 51°15.452 2°50.423 8.706 3.272923 30.485178 11.050751
2005-04-13 07:20:47 51°15.452 2°50.422 8.7043 3.272923 30.485178 11.050751
2005-04-13 07:20:52 51°15.452 2°50.421 8.7053 3.271028 30.465622 11.387845
2005-04-13 07:20:57 51°15.453 2°50.42 8.7059 3.265341 30.409091 11.219298
2005-04-13 07:21:02 51°15.453 2°50.419 8.7065 3.270922 30.467376 10.949623
2005-04-13 07:21:07 51°15.453 2°50.418 8.7038 3.272607 30.48476 11.488973
2005-04-13 07:21:12 51°15.453 2°50.417 8.7064 3.272607 30.48476 11.488973
2005-04-13 07:21:17 51°15.453 2°50.417 8.7039 3.265025 30.405832 10.848494
2005-04-13 07:21:22 51°15.453 2°50.416 8.7066 3.265341 30.408382 11.253007
2005-04-13 07:21:27 51°15.453 2°50.415 8.7059 3.268184 30.43771 10.814785
2005-04-13 07:21:32 51°15.453 2°50.414 8.7068 3.268395 30.439883 11.185589
2005-04-13 07:21:36 51°15.453 2°50.413 8.7076 3.270817 30.464159 11.08446
2005-04-13 07:21:42 51°15.454 2°50.412 8.7093 3.270817 30.464159 11.08446
2005-04-13 07:21:47 51°15.454 2°50.411 8.7084 3.27029 30.458727 11.354136
2005-04-13 07:21:51 51°15.454 2°50.411 8.709 3.265341 30.406256 11.421554
2005-04-13 07:21:57 51°15.454 2°50.41 8.7076 3.268184 30.436291 10.713657
2005-04-13 07:22:02 51°15.454 2°50.409 8.7059 3.271133 30.467418 10.781076
2005-04-13 07:22:07 51°15.454 2°50.408 8.7077 3.271344 30.468881 11.017042
2005-04-13 07:22:12 51°15.454 2°50.408 8.7043 3.271133 30.465998 10.983332
2005-04-13 07:22:17 51°15.454 2°50.407 8.7042 3.271133 30.465998 10.983332
2005-04-13 07:22:22 51°15.454 2°50.406 8.7045 3.268184 30.435582 11.185589
2005-04-13 07:22:27 51°15.455 2°50.405 8.7087 3.270501 30.45948 11.354136
2005-04-13 07:22:32 51°15.455 2°50.404 8.7098 3.269343 30.447531 10.949623
2005-04-13 07:22:36 51°15.455 2°50.404 8.7054 3.272186 30.477573 10.713657
2005-04-13 07:22:42 51°15.455 2°50.403 8.7038 3.271975 30.4754 10.983332
2005-04-13 07:22:47 51°15.455 2°50.402 8.7048 3.271975 30.4754 10.983332
2005-04-13 07:22:51 51°15.455 2°50.401 8.7028 3.268816 30.444228 10.983332
2005-04-13 07:22:57 51°15.455 2°50.4 8.7059 3.269237 30.447864 10.54511
2005-04-13 07:23:02 51°15.455 2°50.399 8.7035 3.231958 30.062943 10.477691
2005-04-13 07:23:07 51°15.455 2°50.398 8.7062 3.279453 30.55255 11.017042
2005-04-13 07:23:11 51°15.455 2°50.398 8.7049 3.279453 30.55255 11.017042
2005-04-13 07:23:17 51°15.456 2°50.397 8.7039 3.279348 30.552176 11.354136
2005-04-13 07:23:22 51°15.456 2°50.396 8.7016 3.279242 30.551801 11.253007
2005-04-13 07:23:27 51°15.456 2°50.395 8.7041 3.279348 30.5536 10.915913
2005-04-13 07:23:32 51°15.456 2°50.394 8.7023 3.279137 30.550714 11.017042
2005-04-13 07:23:37 51°15.456 2°50.393 8.7019 3.279242 30.551801 11.050751
2005-04-13 07:23:41 51°15.456 2°50.392 8.7012 3.279242 30.551801 11.050751
2005-04-13 07:23:48 51°15.456 2°50.391 8.7031 3.278926 30.549252 11.050751
2005-04-13 07:23:52 51°15.456 2°50.39 8.703 3.279137 30.550714 10.983332
2005-04-13 07:23:57 51°15.456 2°50.389 8.7059 3.279137 30.551426 11.522683
2005-04-13 07:24:02 51°15.456 2°50.388 8.7026 3.278821 30.548878 10.882204
2005-04-13 07:24:07 51°15.456 2°50.387 8.7032 3.278926 30.550677 11.354136
2005-04-13 07:24:11 51°15.456 2°50.386 8.7043 3.278821 30.548878 11.286717
2005-04-13 07:24:17 51°15.457 2°50.385 8.705 3.278821 30.548878 11.286717
2005-04-13 07:24:21 51°15.457 2°50.384 8.7057 3.276293 30.522794 11.050751
2005-04-13 07:24:27 51°15.457 2°50.383 8.705 3.279137 30.552138 11.151879
2005-04-13 07:24:31 51°15.457 2°50.382 8.7037 3.279137 30.550002 11.017042
2005-04-13 07:24:37 51°15.457 2°50.381 8.7061 3.279137 30.551426 10.848494
2005-04-13 07:24:42 51°15.457 2°50.38 8.7074 3.279137 30.551426 10.848494
2005-04-13 07:24:46 51°15.457 2°50.379 8.7081 3.278716 30.546367 10.949623
2005-04-13 07:24:52 51°15.457 2°50.378 8.7042 3.276925 30.527891 10.578819
2005-04-13 07:24:57 51°15.457 2°50.377 8.706 3.277768 30.535874 10.612529
2005-04-13 07:25:03 51°15.457 2°50.376 8.7042 3.277662 30.535499 11.050751
2005-04-13 07:25:07 51°15.457 2°50.375 8.7032 3.277031 30.528266 11.050751
2005-04-13 07:25:12 51°15.458 2°50.374 8.7018 3.277031 30.528266 11.050751
2005-04-13 07:25:15 51°15.458 2°50.373 8.7029 3.277347 30.531527 10.679947
2005-04-13 07:25:22 51°15.458 2°50.372 8.7026 3.279137 30.54929 10.814785
2005-04-13 07:25:27 51°15.458 2°50.371 8.7042 3.276293 30.52066 10.54511
2005-04-13 07:25:32 51°15.458 2°50.37 8.7041 3.279137 30.550002 11.050751
2005-04-13 07:25:36 51°15.458 2°50.369 8.7032 3.277241 30.531863 10.814785
2005-04-13 07:25:42 51°15.458 2°50.368 8.7038 3.277873 30.538384 10.915913
2005-04-13 07:25:47 51°15.458 2°50.367 8.7036 3.277873 30.538384 10.915913
2005-04-13 07:25:51 51°15.458 2°50.366 8.7047 3.277768 30.538009 11.050751
2005-04-13 07:25:57 51°15.458 2°50.365 8.7066 3.277452 30.533325 11.151879
2005-04-13 07:26:01 51°15.458 2°50.364 8.7057 3.27861 30.545992 10.949623
2005-04-13 07:26:07 51°15.458 2°50.363 8.706 3.276715 30.527141 10.747366
2005-04-13 07:26:12 51°15.459 2°50.362 8.7066 3.276715 30.527141 10.747366
2005-04-13 07:26:16 51°15.458 2°50.361 8.7057 3.277663 30.536922 11.185589
2005-04-13 07:26:22 51°15.458 2°50.36 8.7064 3.277873 30.538384 10.848494
2005-04-13 07:26:27 51°15.458 2°50.359 8.7045 3.279137 30.551426 10.781076
2005-04-13 07:26:31 51°15.459 2°50.358 8.7068 3.278189 30.540221 11.354136
2005-04-13 07:26:36 51°15.459 2°50.357 8.7049 3.279242 30.550377 11.151879
2005-04-13 07:26:41 51°15.459 2°50.356 8.7021 3.279242 30.550377 11.151879
2005-04-13 07:26:47 51°15.459 2°50.355 8.7025 3.279137 30.550002 11.286717
2005-04-13 07:26:52 51°15.459 2°50.354 8.7052 3.279242 30.551089 11.151879
2005-04-13 07:26:57 51°15.459 2°50.353 8.703 3.279032 30.548915 11.11817
2005-04-13 07:27:01 51°15.459 2°50.352 8.7029 3.279242 30.551089 11.185589
2005-04-13 07:27:07 51°15.459 2°50.351 8.7049 3.279032 30.548915 10.781076
2005-04-13 07:27:11 51°15.459 2°50.35 8.707 3.279032 30.548915 10.781076
2005-04-13 07:27:17 51°15.459 2°50.348 8.7044 3.279137 30.552138 11.185589
2005-04-13 07:27:22 51°15.459 2°50.347 8.7098 3.279032 30.551051 10.713657
2005-04-13 07:27:27 51°15.459 2°50.346 8.7064 3.279137 30.551426 10.983332
2005-04-13 07:27:32 51°15.459 2°50.345 8.7074 3.278926 30.54854 10.578819
2005-04-13 07:27:37 51°15.459 2°50.344 8.7072 3.278821 30.548166 11.08446
2005-04-13 07:27:42 51°15.459 2°50.343 8.7057 3.278821 30.548166 10.915913
2005-04-13 07:27:47 51°15.459 2°50.342 8.7056 3.278821 30.548166 10.915913
2005-04-13 07:27:52 51°15.459 2°50.341 8.7079 3.278821 30.546742 10.814785
2005-04-13 07:27:56 51°15.459 2°50.34 8.7079 3.278926 30.546404 10.848494
2005-04-13 07:28:02 51°15.459 2°50.339 8.7072 3.279032 30.546779 10.983332
2005-04-13 07:28:07 51°15.459 2°50.338 8.709 3.278821 30.545318 10.983332
2005-04-13 07:28:11 51°15.459 2°50.337 8.7066 3.278926 30.546404 11.253007
2005-04-13 07:28:17 51°15.459 2°50.336 8.7062 3.278926 30.546404 11.253007
2005-04-13 07:28:21 51°15.459 2°50.335 8.7074 3.278926 30.545693 10.915913
2005-04-13 07:28:27 51°15.459 2°50.334 8.7089 3.278716 30.544943 11.455264
2005-04-13 07:28:32 51°15.459 2°50.333 8.7101 3.278821 30.545318 10.713657
2005-04-13 07:28:37 51°15.459 2°50.332 8.7155 3.278926 30.546404 10.949623
2005-04-13 07:28:43 51°15.459 2°50.331 8.7121 3.278926 30.546404 10.949623
2005-04-13 07:28:47 51°15.459 2°50.33 8.7102 3.278821 30.543894 11.11817
2005-04-13 07:28:52 51°15.459 2°50.328 8.7095 3.278821 30.545318 11.387845
2005-04-13 07:28:57 51°15.459 2°50.328 8.7076 3.278926 30.545693 10.781076
2005-04-13 07:29:02 51°15.459 2°50.326 8.7098 3.278926 30.545693 10.679947
2005-04-13 07:29:07 51°15.46 2°50.325 8.7085 3.279032 30.545356 10.882204
2005-04-13 07:29:11 51°15.459 2°50.324 8.706 3.279032 30.545356 10.882204
2005-04-13 07:29:17 51°15.46 2°50.323 8.7064 3.279137 30.545019 10.713657
2005-04-13 07:29:22 51°15.459 2°50.322 8.7106 3.279032 30.544644 10.915913
2005-04-13 07:29:27 51°15.46 2°50.321 8.7086 3.278926 30.543557 10.781076
2005-04-13 07:29:31 51°15.46 2°50.32 8.7102 3.278821 30.543894 10.915913
2005-04-13 07:29:36 51°15.46 2°50.319 8.7086 3.278926 30.545693 10.747366
2005-04-13 07:29:42 51°15.46 2°50.318 8.7118 3.278821 30.545318 11.151879
2005-04-13 07:29:47 51°15.46 2°50.317 8.7108 3.278821 30.545318 11.151879
2005-04-13 07:29:51 51°15.46 2°50.316 8.7131 3.278716 30.544943 11.185589
2005-04-13 07:29:57 51°15.46 2°50.315 8.7173 3.278821 30.544606 11.185589
2005-04-13 07:30:03 51°15.46 2°50.313 8.7141 3.278716 30.543519 11.556392
2005-04-13 07:30:07 51°15.46 2°50.312 8.711 3.278821 30.543182 10.915913
2005-04-13 07:30:12 51°15.46 2°50.311 8.7123 3.278821 30.543182 10.915913
2005-04-13 07:30:17 51°15.46 2°50.31 8.7145 3.2784 30.539547 11.050751
2005-04-13 07:30:22 51°15.46 2°50.309 8.7153 3.27861 30.540297 11.08446
2005-04-13 07:30:27 51°15.46 2°50.308 8.7171 3.278716 30.540672 10.882204
2005-04-13 07:30:32 51°15.46 2°50.307 8.7102 3.278716 30.539249 10.882204
2005-04-13 07:30:37 51°15.46 2°50.306 8.7116 3.278926 30.541422 11.151879
2005-04-13 07:30:42 51°15.46 2°50.305 8.7106 3.278926 30.541422 11.151879
2005-04-13 07:30:47 51°15.46 2°50.304 8.7088 3.278821 30.541047 11.455264
2005-04-13 07:30:52 51°15.461 2°50.302 8.7086 3.27861 30.538874 11.387845
2005-04-13 07:30:57 51°15.461 2°50.301 8.7097 3.27861 30.538874 10.983332
2005-04-13 07:31:01 51°15.461 2°50.301 8.7126 3.278926 30.541422 11.286717
2005-04-13 07:31:07 51°15.461 2°50.299 8.7092 3.278821 30.541759 10.949623
2005-04-13 07:31:11 51°15.461 2°50.298 8.7092 3.278716 30.540672 11.320426
2005-04-13 07:31:17 51°15.461 2°50.297 8.7086 3.278716 30.540672 11.320426
2005-04-13 07:31:21 51°15.462 2°50.296 8.7098 3.27861 30.540297 11.185589
2005-04-13 07:31:27 51°15.462 2°50.294 8.7083 3.278505 30.539922 11.320426
2005-04-13 07:31:31 51°15.462 2°50.293 8.7102 3.27861 30.540297 11.488973
2005-04-13 07:31:37 51°15.462 2°50.292 8.7084 3.2784 30.537412 10.983332
2005-04-13 07:31:42 51°15.462 2°50.291 8.709 3.2784 30.537412 10.983332
2005-04-13 07:31:47 51°15.462 2°50.29 8.7078 3.278505 30.540634 11.387845
2005-04-13 07:31:52 51°15.462 2°50.289 8.7084 3.278505 30.539922 11.11817
2005-04-13 07:31:57 51°15.462 2°50.288 8.7085 3.278505 30.539922 11.286717
2005-04-13 07:32:01 51°15.462 2°50.287 8.7114 3.278294 30.537749 11.017042
2005-04-13 07:32:06 51°15.463 2°50.286 8.7098 3.2784 30.539547 11.185589
2005-04-13 07:32:12 51°15.463 2°50.284 8.7114 3.2784 30.539547 11.185589
2005-04-13 07:32:17 51°15.463 2°50.283 8.7125 3.278505 30.539922 11.253007
2005-04-13 07:32:22 51°15.463 2°50.282 8.7117 3.2784 30.538835 11.556392
2005-04-13 07:32:27 51°15.463 2°50.281 8.709 3.278294 30.53846 11.522683
2005-04-13 07:32:32 51°15.463 2°50.28 8.7102 3.278294 30.53846 11.556392
2005-04-13 07:32:37 51°15.463 2°50.279 8.7079 3.278294 30.537749 11.151879
2005-04-13 07:32:41 51°15.463 2°50.278 8.7103 3.278294 30.537749 11.151879
2005-04-13 07:32:47 51°15.463 2°50.276 8.713 3.2784 30.538835 11.758648
2005-04-13 07:32:52 51°15.463 2°50.275 8.709 3.2784 30.538124 10.915913
2005-04-13 07:32:57 51°15.463 2°50.274 8.7079 3.278294 30.536326 11.455264
2005-04-13 07:33:02 51°15.463 2°50.273 8.7062 3.278294 30.537037 10.915913
2005-04-13 07:33:07 51°15.463 2°50.272 8.7113 3.278294 30.537749 11.421554
2005-04-13 07:33:12 51°15.463 2°50.27 8.7077 3.27861 30.541721 11.421554
2005-04-13 07:33:17 51°15.463 2°50.27 8.7091 3.27861 30.541721 11.421554
2005-04-13 07:33:21 51°15.463 2°50.268 8.7107 3.278189 30.536662 11.151879
2005-04-13 07:33:27 51°15.463 2°50.267 8.7076 3.2784 30.538124 11.08446
2005-04-13 07:33:32 51°15.463 2°50.266 8.7095 3.278189 30.536662 11.219298
2005-04-13 07:33:37 51°15.463 2°50.265 8.7083 3.278189 30.538085 11.11817
2005-04-13 07:33:42 51°15.463 2°50.264 8.7068 3.278294 30.53846 11.11817
2005-04-13 07:33:47 51°15.463 2°50.263 8.7071 3.278294 30.53846 11.11817
2005-04-13 07:33:51 51°15.463 2°50.262 8.709 3.278189 30.538085 11.151879
2005-04-13 07:33:57 51°15.463 2°50.26 8.7109 3.278294 30.537749 11.421554
2005-04-13 07:34:02 51°15.463 2°50.259 8.7094 3.278084 30.536999 11.522683
2005-04-13 07:34:07 51°15.463 2°50.258 8.7077 3.278084 30.536999 11.421554
2005-04-13 07:34:12 51°15.463 2°50.257 8.7109 3.278084 30.536999 11.421554
2005-04-13 07:34:16 51°15.463 2°50.256 8.7109 3.278084 30.536999 10.949623
2005-04-13 07:34:22 51°15.463 2°50.255 8.7096 3.277978 30.536624 11.151879
2005-04-13 07:34:27 51°15.463 2°50.254 8.708 3.277978 30.536624 11.219298
2005-04-13 07:34:31 51°15.463 2°50.253 8.7079 3.277873 30.535537 11.185589
2005-04-13 07:34:35 51°15.463 2°50.252 8.7082 3.278084 30.536999 11.421554
2005-04-13 07:34:42 51°15.463 2°50.251 8.7096 3.278084 30.536999 11.421554
2005-04-13 07:34:47 51°15.463 2°50.249 8.7108 3.277978 30.535912 11.320426
2005-04-13 07:34:52 51°15.463 2°50.249 8.7076 3.277978 30.5352 10.983332
2005-04-13 07:34:57 51°15.463 2°50.247 8.7123 3.277873 30.534825 11.151879
2005-04-13 07:35:01 51°15.463 2°50.247 8.7123 3.277873 30.535537 11.151879
2005-04-13 07:35:07 51°15.463 2°50.245 8.7103 3.278084 30.536999 11.151879
2005-04-13 07:35:12 51°15.462 2°50.244 8.7087 3.278084 30.536999 11.151879
2005-04-13 07:35:17 51°15.462 2°50.243 8.708 3.278084 30.536999 11.859777
2005-04-13 07:35:22 51°15.462 2°50.242 8.7072 3.277978 30.535912 11.286717
2005-04-13 07:35:27 51°15.462 2°50.241 8.7034 3.278084 30.536287 11.421554
2005-04-13 07:35:32 51°15.462 2°50.24 8.7057 3.278189 30.537374 11.522683
2005-04-13 07:35:37 51°15.462 2°50.239 8.7092 3.278189 30.537374 11.253007
2005-04-13 07:35:42 51°15.462 2°50.237 8.7051 3.278189 30.537374 11.253007
2005-04-13 07:35:47 51°15.462 2°50.236 8.7086 3.278189 30.538085 11.724939
2005-04-13 07:35:51 51°15.462 2°50.235 8.706 3.278189 30.538085 11.488973
2005-04-13 07:35:56 51°15.461 2°50.235 8.7081 3.277978 30.537335 11.522683
2005-04-13 07:36:00 51°15.461 2°50.234 8.7062 3.277978 30.537335 11.65752
2005-04-13 07:36:07 51°15.461 2°50.232 8.7053 3.278084 30.538422 11.455264
2005-04-13 07:36:11 51°15.461 2°50.232 8.7094 3.278084 30.538422 11.455264
2005-04-13 07:36:16 51°15.461 2°50.231 8.7035 3.278189 30.538085 11.69123
2005-04-13 07:36:22 51°15.46 2°50.23 8.7057 3.278084 30.53771 11.69123
2005-04-13 07:36:27 51°15.46 2°50.229 8.7038 3.278189 30.538797 12.062033
2005-04-13 07:36:32 51°15.46 2°50.228 8.7043 3.277978 30.537335 11.556392
2005-04-13 07:36:37 51°15.459 2°50.226 8.7038 3.277978 30.537335 12.23058
2005-04-13 07:36:42 51°15.459 2°50.225 8.7053 3.277978 30.537335 12.23058
2005-04-13 07:36:47 51°15.459 2°50.224 8.7057 3.278084 30.538422 11.792358
2005-04-13 07:36:51 51°15.459 2°50.223 8.709 3.278294 30.541308 12.163161
2005-04-13 07:36:57 51°15.458 2°50.222 8.7035 3.278084 30.539846 11.488973
2005-04-13 07:37:02 51°15.458 2°50.221 8.7057 3.277978 30.538759 11.65752
2005-04-13 07:37:07 51°15.458 2°50.22 8.71 3.277978 30.539471 12.163161
2005-04-13 07:37:12 51°15.458 2°50.219 8.7048 3.277873 30.538384 11.994614
2005-04-13 07:37:17 51°15.457 2°50.217 8.7065 3.277873 30.538384 11.994614
2005-04-13 07:37:21 51°15.457 2°50.217 8.7091 3.277978 30.538759 11.792358
2005-04-13 07:37:27 51°15.457 2°50.215 8.71 3.278084 30.538422 12.028324
2005-04-13 07:37:32 51°15.457 2°50.214 8.7101 3.277978 30.538047 12.095742
2005-04-13 07:37:37 51°15.456 2°50.213 8.7112 3.277978 30.538047 11.960905
2005-04-13 07:37:41 51°15.456 2°50.212 8.7106 3.277978 30.538047 11.960905
2005-04-13 07:37:46 51°15.456 2°50.211 8.7079 3.277978 30.537335 12.062033
2005-04-13 07:37:51 51°15.455 2°50.211 8.715 3.277662 30.53621 12.028324
2005-04-13 07:37:57 51°15.453 2°50.21 8.7178 3.278084 30.53771 11.724939
2005-04-13 07:38:01 51°15.451 2°50.211 8.7086 3.277978 30.536624 12.331708
2005-04-13 07:38:07 51°15.448 2°50.211 8.7114 3.277978 30.5352 11.758648
2005-04-13 07:38:12 51°15.445 2°50.212 8.7071 3.277978 30.5352 11.758648
2005-04-13 07:38:17 51°15.442 2°50.212 8.7093 3.278189 30.538085 11.69123
2005-04-13 07:38:22 51°15.438 2°50.213 8.7077 3.278084 30.53771 11.69123
2005-04-13 07:38:27 51°15.434 2°50.214 8.7082 3.278084 30.536999 11.522683
2005-04-13 07:38:32 51°15.43 2°50.214 8.714 3.278189 30.536662 11.758648
2005-04-13 07:38:37 51°15.426 2°50.215 8.7078 3.278189 30.536662 12.062033
2005-04-13 07:38:42 51°15.421 2°50.215 8.7151 3.278084 30.536287 12.062033
2005-04-13 07:38:47 51°15.417 2°50.216 8.7072 3.278084 30.536287 12.062033
2005-04-13 07:38:52 51°15.412 2°50.216 8.7086 3.277873 30.534825 11.488973
2005-04-13 07:38:56 51°15.408 2°50.216 8.7077 3.277768 30.533027 11.758648
2005-04-13 07:39:02 51°15.401 2°50.216 8.7025 3.277873 30.535537 12.062033
2005-04-13 07:39:07 51°15.396 2°50.215 8.7094 3.277978 30.5352 11.859777
2005-04-13 07:39:12 51°15.39 2°50.214 8.7085 3.277978 30.5352 11.859777
2005-04-13 07:39:17 51°15.385 2°50.213 8.7055 3.277873 30.535537 11.556392
2005-04-13 07:39:21 51°15.381 2°50.212 8.7092 3.277768 30.53445 11.69123
2005-04-13 07:39:27 51°15.374 2°50.209 8.7017 3.277873 30.534825 11.927195
2005-04-13 07:39:31 51°15.369 2°50.206 8.7025 3.277768 30.535162 11.859777
2005-04-13 07:39:36 51°15.363 2°50.203 8.7062 3.277662 30.534787 11.623811
2005-04-13 07:39:41 51°15.358 2°50.199 8.7097 3.277662 30.534787 11.623811
2005-04-13 07:39:47 51°15.351 2°50.194 8.6997 3.277452 30.531902 12.163161
2005-04-13 07:39:52 51°15.345 2°50.189 8.6968 3.277452 30.532613 11.927195
2005-04-13 07:39:57 51°15.34 2°50.184 8.7001 3.277031 30.528266 12.028324
2005-04-13 07:40:02 51°15.334 2°50.178 8.6961 3.276715 30.526429 12.23058
2005-04-13 07:40:07 51°15.329 2°50.172 8.6955 3.276399 30.524592 12.297999
2005-04-13 07:40:12 51°15.323 2°50.166 8.6957 3.276399 30.521746 12.702512
2005-04-13 07:40:17 51°15.319 2°50.16 8.6993 3.276399 30.521746 12.702512
2005-04-13 07:40:22 51°15.314 2°50.153 8.6973 3.276083 30.52062 12.297999
2005-04-13 07:40:27 51°15.309 2°50.145 8.6915 3.275767 30.520206 11.994614
2005-04-13 07:40:31 51°15.305 2°50.139 8.6933 3.275346 30.51657 12.80364
2005-04-13 07:40:36 51°15.3 2°50.132 8.6964 3.27503 30.515443 12.062033
2005-04-13 07:40:42 51°15.295 2°50.123 8.6963 3.27503 30.515443 12.062033
2005-04-13 07:40:47 51°15.291 2°50.116 8.6982 3.274924 30.515068 12.567674
2005-04-13 07:40:52 51°15.287 2°50.108 8.6931 3.27503 30.516155 12.972187
2005-04-13 07:40:57 51°15.282 2°50.098 8.6909 3.274924 30.514356 12.432836
2005-04-13 07:41:01 51°15.279 2°50.093 8.6878 3.274819 30.516115 12.668802
2005-04-13 07:41:07 51°15.274 2°50.082 8.688 3.274819 30.516827 12.702512
2005-04-13 07:41:12 51°15.27 2°50.073 8.6877 3.274819 30.516827 12.702512
2005-04-13 07:41:17 51°15.266 2°50.066 8.6904 3.274608 30.514653 12.533965
2005-04-13 07:41:22 51°15.262 2°50.056 8.6902 3.274608 30.513941 11.893486
2005-04-13 07:41:27 51°15.258 2°50.047 8.6866 3.274503 30.512143 12.533965
2005-04-13 07:41:32 51°15.254 2°50.039 8.6879 3.274609 30.516076 11.893486
2005-04-13 07:41:36 51°15.251 2°50.031 8.6875 3.274503 30.515701 12.196871
2005-04-13 07:41:41 51°15.247 2°50.023 8.6898 3.274503 30.515701 12.196871
2005-04-13 07:41:47 51°15.243 2°50.013 8.6853 3.274714 30.519298 12.80364
2005-04-13 07:41:52 51°15.24 2°50.003 8.689 3.274609 30.518923 12.500255
2005-04-13 07:41:57 51°15.237 2°49.995 8.684 3.274924 30.522896 12.904768
2005-04-13 07:42:02 51°15.234 2°49.986 8.6858 3.274714 30.522145 12.668802
2005-04-13 07:42:07 51°15.231 2°49.977 8.6818 3.27524 30.526158 12.601383
2005-04-13 07:42:12 51°15.229 2°49.969 8.6831 3.27524 30.526158 12.601383
2005-04-13 07:42:17 51°15.227 2°49.961 8.6842 3.27524 30.526869 13.005896
2005-04-13 07:42:22 51°15.225 2°49.952 8.6878 3.275767 30.531594 12.399127
2005-04-13 07:42:27 51°15.223 2°49.944 8.6848 3.276188 30.536655 12.668802
2005-04-13 07:42:32 51°15.221 2°49.934 8.6835 3.27661 30.543854 12.635093
2005-04-13 07:42:36 51°15.22 2°49.927 8.6871 3.276715 30.544941 13.073315
2005-04-13 07:42:41 51°15.218 2°49.918 8.6841 3.276715 30.544941 13.073315
2005-04-13 07:42:47 51°15.217 2°49.908 8.686 3.277241 30.551091 13.241862
2005-04-13 07:42:52 51°15.216 2°49.901 8.6844 3.277557 30.554353 12.837349
2005-04-13 07:42:57 51°15.214 2°49.892 8.6851 3.277663 30.554728 12.972187
2005-04-13 07:43:02 51°15.214 2°49.883 8.6857 3.278084 30.559078 12.972187
2005-04-13 07:43:07 51°15.213 2°49.874 8.6848 3.2784 30.563053 12.500255
2005-04-13 07:43:12 51°15.212 2°49.867 8.6835 3.2784 30.563053 12.500255
2005-04-13 07:43:17 51°15.212 2°49.858 8.6827 3.2784 30.561628 12.938477
2005-04-13 07:43:21 51°15.211 2°49.852 8.6846 3.278821 30.565978 12.500255
2005-04-13 07:43:27 51°15.211 2°49.841 8.6815 3.279242 30.571041 12.23058
2005-04-13 07:43:31 51°15.211 2°49.835 8.6835 3.279453 30.572503 13.241862
2005-04-13 07:43:37 51°15.21 2°49.826 8.6842 3.279769 30.577192 12.533965
2005-04-13 07:43:42 51°15.21 2°49.817 8.6864 3.27998 30.579367 13.410409
2005-04-13 07:43:47 51°15.21 2°49.809 8.6854 3.27998 30.579367 13.410409
2005-04-13 07:43:51 51°15.21 2°49.802 8.686 3.280085 30.580455 13.107024
2005-04-13 07:43:57 51°15.21 2°49.793 8.6848 3.280296 30.581917 13.005896
2005-04-13 07:44:01 51°15.211 2°49.787 8.6818 3.280506 30.585519 13.107024
2005-04-13 07:44:07 51°15.211 2°49.777 8.6851 3.280717 30.586981 13.781212
2005-04-13 07:44:12 51°15.212 2°49.769 8.6807 3.280717 30.585554 12.601383
2005-04-13 07:44:17 51°15.213 2°49.761 8.6849 3.280717 30.585554 12.601383
2005-04-13 07:44:22 51°15.213 2°49.753 8.6828 3.281243 30.589565 13.073315
2005-04-13 07:44:27 51°15.214 2°49.746 8.6827 3.281559 30.593541 13.241862
2005-04-13 07:44:31 51°15.215 2°49.74 8.6811 3.281875 30.598945 13.174443
2005-04-13 07:44:37 51°15.216 2°49.731 8.6859 3.281981 30.600747 13.814922
2005-04-13 07:44:42 51°15.218 2°49.723 8.6825 3.281981 30.600747 13.814922
2005-04-13 07:44:47 51°15.219 2°49.716 8.6816 3.282086 30.602548 12.837349
2005-04-13 07:44:52 51°15.221 2°49.708 8.6798 3.282507 30.606899 13.073315
2005-04-13 07:44:56 51°15.222 2°49.703 8.6834 3.282823 30.609449 13.107024
2005-04-13 07:45:02 51°15.225 2°49.694 8.6832 3.283034 30.612338 13.713794
2005-04-13 07:45:07 51°15.226 2°49.688 8.6789 3.283455 30.617404 12.871059
2005-04-13 07:45:11 51°15.228 2°49.682 8.6795 3.28356 30.617778 13.309281
2005-04-13 07:45:17 51°15.231 2°49.675 8.6825 3.28356 30.617778 13.309281
2005-04-13 07:45:23 51°15.234 2°49.668 8.684 3.283876 30.621756 12.365418
2005-04-13 07:45:27 51°15.236 2°49.662 8.6848 3.283982 30.622843 13.107024
2005-04-13 07:45:31 51°15.238 2°49.658 8.6842 3.284087 30.623217 12.972187
2005-04-13 07:45:37 51°15.241 2°49.651 8.6874 3.284298 30.626822 13.241862
2005-04-13 07:45:41 51°15.243 2°49.647 8.6869 3.284298 30.626822 13.241862
2005-04-13 07:45:47 51°15.247 2°49.64 8.6873 3.284403 30.629339 12.972187
2005-04-13 07:45:52 51°15.25 2°49.635 8.687 3.284614 30.629371 13.140734
2005-04-13 07:45:56 51°15.253 2°49.631 8.6876 3.284824 30.629403 13.713794
2005-04-13 07:46:01 51°15.256 2°49.627 8.6856 3.284824 30.628689 14.48911
2005-04-13 07:46:07 51°15.26 2°49.622 8.6825 3.285245 30.633755 13.680084
2005-04-13 07:46:11 51°15.263 2°49.618 8.6865 3.285667 30.636677 13.882341
2005-04-13 07:46:16 51°15.266 2°49.614 8.6844 3.285667 30.636677 13.882341
2005-04-13 07:46:22 51°15.27 2°49.609 8.6859 3.285561 30.635589 13.444118
2005-04-13 07:46:27 51°15.274 2°49.605 8.6836 3.285877 30.639568 13.983469
2005-04-13 07:46:32 51°15.277 2°49.602 8.6861 3.285772 30.63848 13.309281
2005-04-13 07:46:37 51°15.28 2°49.599 8.6923 3.285877 30.639568 13.275571
2005-04-13 07:46:41 51°15.283 2°49.596 8.6914 3.285877 30.639568 13.275571
2005-04-13 07:46:47 51°15.287 2°49.593 8.691 3.285877 30.640997 14.219435
2005-04-13 07:46:52 51°15.291 2°49.59 8.6913 3.285877 30.640282 13.309281
2005-04-13 07:46:57 51°15.294 2°49.587 8.692 3.285983 30.642085 13.680084
2005-04-13 07:47:02 51°15.298 2°49.585 8.692 3.285877 30.640282 13.545247
2005-04-13 07:47:07 51°15.302 2°49.583 8.6891 3.285983 30.640655 13.34299
2005-04-13 07:47:12 51°15.306 2°49.581 8.6904 3.286299 30.641775 13.3767
2005-04-13 07:47:17 51°15.309 2°49.58 8.6867 3.286299 30.641775 13.3767
2005-04-13 07:47:20 51°15.311 2°49.579 8.687 3.286299 30.64106 13.410409
2005-04-13 07:47:27 51°15.316 2°49.577 8.684 3.286615 30.642894 13.477828
2005-04-13 07:47:32 51°15.319 2°49.576 8.6844 3.286614 30.64218 14.185725
2005-04-13 07:47:36 51°15.322 2°49.575 8.6872 3.286509 30.642521 14.387982
2005-04-13 07:47:42 51°15.326 2°49.575 8.6861 3.286825 30.6465 13.477828
2005-04-13 07:47:47 51°15.329 2°49.575 8.6876 3.286825 30.6465 13.477828
2005-04-13 07:47:52 51°15.333 2°49.575 8.6877 3.287036 30.64939 14.084597
2005-04-13 07:47:57 51°15.336 2°49.575 8.6867 3.287246 30.651566 13.949759
2005-04-13 07:48:01 51°15.339 2°49.575 8.69 3.287246 30.652996 13.646375
2005-04-13 07:48:07 51°15.343 2°49.576 8.686 3.287141 30.652623 14.050888
2005-04-13 07:48:12 51°15.346 2°49.577 8.6866 3.287246 30.653711 13.073315
2005-04-13 07:48:17 51°15.349 2°49.578 8.6914 3.287246 30.653711 13.073315
2005-04-13 07:48:22 51°15.352 2°49.58 8.69 3.287246 30.652281 13.91605
2005-04-13 07:48:27 51°15.354 2°49.581 8.6891 3.287352 30.653369 13.34299
2005-04-13 07:48:31 51°15.357 2°49.583 8.685 3.287668 30.655917 13.983469
2005-04-13 07:48:36 51°15.359 2°49.585 8.6872 3.287878 30.658093 13.275571
2005-04-13 07:48:41 51°15.362 2°49.587 8.6845 3.287878 30.658093 13.275571
2005-04-13 07:48:47 51°15.365 2°49.59 8.6832 3.287878 30.658808 12.500255
2005-04-13 07:48:51 51°15.366 2°49.592 8.6832 3.288089 30.660269 13.3767
2005-04-13 07:48:57 51°15.369 2°49.596 8.6844 3.288405 30.662818 13.781212
2005-04-13 07:49:02 51°15.371 2°49.599 8.6837 3.2883 30.662445 13.275571
2005-04-13 07:49:07 51°15.373 2°49.602 8.6785 3.288089 30.660984 12.938477
2005-04-13 07:49:12 51°15.375 2°49.605 8.6781 3.288089 30.660984 12.938477
2005-04-13 07:49:16 51°15.376 2°49.608 8.677 3.288089 30.661699 12.76993
2005-04-13 07:49:22 51°15.377 2°49.611 8.6752 3.289563 30.677647 12.938477
2005-04-13 07:49:27 51°15.378 2°49.615 8.6783 3.291249 30.695773 13.140734
2005-04-13 07:49:32 51°15.379 2°49.619 8.6779 3.292302 30.705939 13.713794
2005-04-13 07:49:37 51°15.38 2°49.623 8.6783 3.293671 30.72152 13.814922
2005-04-13 07:49:41 51°15.381 2°49.626 8.6807 3.295251 30.739997 12.972187
2005-04-13 07:49:47 51°15.382 2°49.631 8.6841 3.295251 30.739997 12.972187
2005-04-13 07:49:52 51°15.382 2°49.634 8.6764 3.29662 30.754866 13.511537
2005-04-13 07:49:57 51°15.382 2°49.638 8.6827 3.297146 30.762462 12.938477
2005-04-13 07:50:01 51°15.383 2°49.642 8.6836 3.297884 30.769365 12.76993
2005-04-13 07:50:07 51°15.383 2°49.647 8.679 3.29841 30.774809 12.972187
2005-04-13 07:50:11 51°15.383 2°49.65 8.682 3.29841 30.774809 12.972187
2005-04-13 07:50:17 51°15.382 2°49.654 8.6846 3.298621 30.776268 12.972187
2005-04-13 07:50:22 51°15.382 2°49.657 8.6837 3.298726 30.776639 13.174443
2005-04-13 07:50:27 51°15.382 2°49.66 8.6812 3.297989 30.769736 13.039606
2005-04-13 07:50:31 51°15.382 2°49.662 8.6864 3.297357 30.761768 13.073315
2005-04-13 07:50:36 51°15.381 2°49.665 8.6852 3.29683 30.756325 12.972187
2005-04-13 07:50:42 51°15.381 2°49.669 8.683 3.295672 30.742917 13.140734
2005-04-13 07:50:47 51°15.38 2°49.671 8.6888 3.295672 30.742917 13.140734
2005-04-13 07:50:51 51°15.379 2°49.673 8.686 3.294829 30.734926 13.073315
2005-04-13 07:50:57 51°15.379 2°49.676 8.686 3.294513 30.730227 12.567674
2005-04-13 07:51:02 51°15.378 2°49.677 8.6843 3.293881 30.724413 12.601383
2005-04-13 07:51:06 51°15.378 2°49.679 8.6855 3.293671 30.72152 12.736221
2005-04-13 07:51:11 51°15.377 2°49.681 8.6872 3.29325 30.715734 12.702512
2005-04-13 07:51:17 51°15.376 2°49.683 8.6835 3.29325 30.715734 12.702512
2005-04-13 07:51:22 51°15.375 2°49.685 8.6837 3.293039 30.712124 12.837349
2005-04-13 07:51:27 51°15.374 2°49.687 8.681 3.292302 30.704507 12.567674
2005-04-13 07:51:31 51°15.373 2°49.688 8.6823 3.292196 30.703419 15.736358
2005-04-13 07:51:37 51°15.372 2°49.689 8.6808 3.291775 30.699066 12.028324
2005-04-13 07:51:42 51°15.371 2°49.691 8.6847 3.291775 30.699066 12.028324
2005-04-13 07:51:47 51°15.37 2°49.692 8.6824 3.291459 30.695802 13.444118
2005-04-13 07:51:52 51°15.369 2°49.693 8.6844 3.291354 30.694714 13.174443
2005-04-13 07:51:56 51°15.369 2°49.694 8.6832 3.290511 30.686009 12.938477
2005-04-13 07:52:01 51°15.368 2°49.695 8.6826 3.290617 30.688528 12.668802
2005-04-13 07:52:07 51°15.367 2°49.696 8.6833 3.290511 30.688872 12.76993
2005-04-13 07:52:12 51°15.366 2°49.697 8.6875 3.290511 30.688872 12.76993
2005-04-13 07:52:16 51°15.365 2°49.697 8.6839 3.290301 30.68598 12.972187
2005-04-13 07:52:22 51°15.364 2°49.698 8.6849 3.290195 30.685607 13.34299
2005-04-13 07:52:27 51°15.363 2°49.699 8.6848 3.290195 30.685607 13.174443
2005-04-13 07:52:32 51°15.362 2°49.7 8.6845 3.29009 30.683803 13.511537
2005-04-13 07:52:37 51°15.362 2°49.7 8.6855 3.289458 30.676559 13.174443
2005-04-13 07:52:42 51°15.361 2°49.7 8.6845 3.289037 30.672922 12.601383
2005-04-13 07:52:47 51°15.36 2°49.701 8.6844 3.289037 30.672922 12.601383
2005-04-13 07:52:52 51°15.359 2°49.701 8.683 3.288721 30.668943 12.938477
2005-04-13 07:52:57 51°15.359 2°49.702 8.6866 3.288194 30.663503 12.837349
2005-04-13 07:53:02 51°15.358 2°49.702 8.6885 3.288089 30.661699 13.275571
2005-04-13 07:53:07 51°15.357 2°49.702 8.6883 3.287878 30.659523 13.039606
2005-04-13 07:53:12 51°15.356 2°49.703 8.6876 3.287457 30.655172 13.039606
2005-04-13 07:53:17 51°15.356 2°49.703 8.6848 3.287457 30.655172 13.039606
2005-04-13 07:53:21 51°15.355 2°49.703 8.6907 3.287246 30.653711 12.736221
2005-04-13 07:53:27 51°15.354 2°49.703 8.6871 3.287036 30.651535 13.511537
2005-04-13 07:53:32 51°15.353 2°49.703 8.6864 3.28693 30.649017 12.432836
2005-04-13 07:53:37 51°15.353 2°49.704 8.6882 3.286825 30.647214 13.545247
2005-04-13 07:53:42 51°15.352 2°49.703 8.688 3.286825 30.647214 13.545247
2005-04-13 07:53:47 51°15.351 2°49.703 8.6904 3.28672 30.646126 13.039606
2005-04-13 07:53:52 51°15.351 2°49.703 8.6898 3.287036 30.648675 12.635093
2005-04-13 07:53:57 51°15.35 2°49.703 8.6889 3.28693 30.647587 13.545247
2005-04-13 07:54:01 51°15.349 2°49.703 8.6903 3.287141 30.650478 12.904768
2005-04-13 07:54:07 51°15.349 2°49.703 8.6947 3.287246 30.651566 12.837349
2005-04-13 07:54:12 51°15.348 2°49.703 8.6954 3.287036 30.64939 12.466546
2005-04-13 07:54:17 51°15.347 2°49.702 8.6937 3.287036 30.64939 12.466546